Observation data for Coyanosa on 08/14/2019      Previous  Date  Next       Current Mesonet Observations  Soil Data  Daily Summary Page  Observations in Plain Language
KCO1 140500Z 21015KT 26/19 A3004 RMK A01 T02640190  RH  064%=      5-min Rain = 0
KCO1 140501Z 21020G26KT 27/19 A3003 RMK A01 T02650191  RH  064%=      5-min Rain = 0
KCO1 140502Z 21017G23KT 27/18 A3003 RMK A01 T02660183  RH  060%=      5-min Rain = 0
KCO1 140503Z 24016G27KT 27/18 A3003 RMK A01 T02690182  RH  059%=      5-min Rain = 0
KCO1 140504Z 22009KT 27/18 A3002 RMK A01 T02710181  RH  058%=      5-min Rain = 0
KCO1 140505Z 20013KT 27/19 A3002 RMK A01 T02710188  RH  060%=      5-min Rain = 0
KCO1 140506Z 21013KT 27/19 A3002 RMK A01 T02680192  RH  063%=      5-min Rain = 0
KCO1 140507Z 20012KT 26/20 A3002 RMK A01 T02640197  RH  067%=      5-min Rain = 0
KCO1 140508Z 20014KT 26/20 A3001 RMK A01 T02610195  RH  067%=      5-min Rain = 0
KCO1 140509Z 20014G19KT 26/19 A3001 RMK A01 T02600194  RH  067%=      5-min Rain = 0
KCO1 140510Z 20013G18KT 26/20 A3001 RMK A01 T02600196  RH  068%=      5-min Rain = 0
KCO1 140527Z 22013KT 27/18 A30 RMK A01 T02660183  RH  060%=      5-min Rain = 0
KCO1 140528Z 23013KT 27/18 A30 RMK A01 T02650182  RH  060%=      5-min Rain = 0
KCO1 140529Z 22014G19KT 27/18 A30 RMK A01 T02650180  RH  060%=      5-min Rain = 0
KCO1 140530Z 23013KT 27/18 A30 RMK A01 T02660179  RH  059%=      5-min Rain = 0
KCO1 140531Z 24010KT 27/18 A30 RMK A01 T02670180  RH  059%=      5-min Rain = 0
KCO1 140532Z 23009KT 27/18 A30 RMK A01 T02670180  RH  059%=      5-min Rain = 0
KCO1 140533Z 22008KT 27/18 A30 RMK A01 T02680181  RH  059%=      5-min Rain = 0
KCO1 140534Z 22008KT 27/18 A30 RMK A01 T02680180  RH  059%=      5-min Rain = 0
KCO1 140535Z 25008KT 27/18 A30 RMK A01 T02680178  RH  058%=      5-min Rain = 0
KCO1 140536Z 24011G16KT 27/17 A30 RMK A01 T02700173  RH  055%=      5-min Rain = 0
KCO1 140537Z 25011KT 27/17 A30 RMK A01 T02740171  RH  053%=      5-min Rain = 0
KCO1 140538Z 28010KT 28/17 A30 RMK A01 T02770174  RH  053%=      5-min Rain = 0
KCO1 140539Z 28009KT 28/19 A2999 RMK A01 T02760187  RH  058%=      5-min Rain = 0
KCO1 140540Z 27010KT 27/19 A30 RMK A01 T02710190  RH  061%=      5-min Rain = 0
KCO1 140541Z 27011KT 27/19 A30 RMK A01 T02670191  RH  063%=      5-min Rain = 0
KCO1 140542Z 29011KT 26/19 A30 RMK A01 T02640185  RH  062%=      5-min Rain = 0
KCO1 140543Z 27009KT 27/18 A30 RMK A01 T02650184  RH  061%=      5-min Rain = 0
KCO1 140544Z 26008KT 27/18 A30 RMK A01 T02670181  RH  059%=      5-min Rain = 0
KCO1 140545Z 27008KT 27/19 A30 RMK A01 T02680186  RH  060%=      5-min Rain = 0
KCO1 140546Z 29007KT 27/18 A30 RMK A01 T02680183  RH  060%=      5-min Rain = 0
KCO1 140547Z 31009KT 27/18 A2999 RMK A01 T02690179  RH  058%=      5-min Rain = 0
KCO1 140548Z 29007KT 27/18 A30 RMK A01 T02700180  RH  058%=      5-min Rain = 0
KCO1 140549Z 32007KT 27/18 A30 RMK A01 T02710177  RH  056%=      5-min Rain = 0
KCO1 140550Z 01006KT 27/18 A3001 RMK A01 T02720180  RH  057%=      5-min Rain = 0
KCO1 140551Z 02010KT 27/18 A30 RMK A01 T02720180  RH  057%=      5-min Rain = 0
KCO1 140552Z 31014G19KT 27/18 A30 RMK A01 T02710184  RH  059%=      5-min Rain = 0
KCO1 140553Z 29012KT 27/18 A3001 RMK A01 T02690177  RH  057%=      5-min Rain = 0
KCO1 140554Z 31011KT 27/18 A3001 RMK A01 T02720175  RH  055%=      5-min Rain = 0
KCO1 140555Z 32007KT 27/18 A3001 RMK A01 T02730177  RH  056%=      5-min Rain = 0
KCO1 140556Z 34008KT 27/18 A3002 RMK A01 T02730183  RH  058%=      5-min Rain = 0
KCO1 140557Z 35008KT 27/18 A3002 RMK A01 T02710183  RH  059%=      5-min Rain = 0
KCO1 140558Z 01011KT 27/18 A3001 RMK A01 T02690183  RH  059%=      5-min Rain = 0
KCO1 140559Z 36011KT 27/18 A3001 RMK A01 T02680182  RH  059%=      5-min Rain = 0
KCO1 140600Z 35009KT 27/18 A3001 RMK A01 T02690179  RH  058%=      5-min Rain = 0
KCO1 140601Z 01011KT 27/18 A3001 RMK A01 T02690181  RH  058%=      5-min Rain = 0
KCO1 140602Z 36003KT 27/18 A3001 RMK A01 T02700175  RH  056%=      5-min Rain = 0
KCO1 140603Z 32002KT 27/18 A3001 RMK A01 T02730176  RH  056%=      5-min Rain = 0
KCO1 140604Z 28003KT 27/18 A3001 RMK A01 T02740178  RH  056%=      5-min Rain = 0
KCO1 140605Z 25005KT 27/18 A3001 RMK A01 T02730179  RH  056%=      5-min Rain = 0
KCO1 140606Z 25005KT 27/18 A3001 RMK A01 T02730181  RH  057%=      5-min Rain = 0
KCO1 140607Z 22002KT 27/18 A3001 RMK A01 T02710182  RH  058%=      5-min Rain = 0
KCO1 140608Z 29001KT 27/18 A30 RMK A01 T02700184  RH  059%=      5-min Rain = 0
KCO1 140609Z 25002KT 27/18 A30 RMK A01 T02690184  RH  060%=      5-min Rain = 0
KCO1 140610Z 23004KT 27/19 A30 RMK A01 T02680187  RH  061%=      5-min Rain = 0
KCO1 140611Z 16002KT 27/19 A30 RMK A01 T02660186  RH  061%=      5-min Rain = 0
KCO1 140612Z 11004KT 27/19 A30 RMK A01 T02660185  RH  061%=      5-min Rain = 0
KCO1 140613Z 10005KT 27/19 A3001 RMK A01 T02650185  RH  062%=      5-min Rain = 0
KCO1 140614Z 08006KT 27/19 A3001 RMK A01 T02650187  RH  062%=      5-min Rain = 0
KCO1 140615Z 09005KT 26/19 A3001 RMK A01 T02640189  RH  063%=      5-min Rain = 0
KCO1 140616Z 08004KT 26/19 A3001 RMK A01 T02630187  RH  063%=      5-min Rain = 0
KCO1 140617Z 07007KT 26/19 A3001 RMK A01 T02630188  RH  064%=      5-min Rain = 0
KCO1 140618Z 07005KT 26/19 A3001 RMK A01 T02620188  RH  064%=      5-min Rain = 0
KCO1 140619Z 06005KT 26/19 A30 RMK A01 T02620186  RH  063%=      5-min Rain = 0
KCO1 140620Z 06006KT 26/19 A3001 RMK A01 T02620188  RH  064%=      5-min Rain = 0
KCO1 140621Z 06005KT 26/19 A3001 RMK A01 T02620189  RH  064%=      5-min Rain = 0
KCO1 140622Z 05007KT 26/19 A3001 RMK A01 T02620189  RH  064%=      5-min Rain = 0
KCO1 140623Z 04008KT 26/19 A3001 RMK A01 T02620191  RH  065%=      5-min Rain = 0
KCO1 140624Z 05008KT 26/19 A3001 RMK A01 T02610192  RH  066%=      5-min Rain = 0
KCO1 140625Z 03008KT 26/19 A3001 RMK A01 T02610191  RH  065%=      5-min Rain = 0
KCO1 140626Z 03007KT 26/19 A3001 RMK A01 T02610193  RH  066%=      5-min Rain = 0
KCO1 140627Z 03007KT 26/19 A3001 RMK A01 T02600194  RH  067%=      5-min Rain = 0
KCO1 140628Z 02008KT 26/20 A3002 RMK A01 T02600195  RH  067%=      5-min Rain = 0
KCO1 140629Z 02007KT 26/19 A3002 RMK A01 T02590192  RH  066%=      5-min Rain = 0
KCO1 140630Z 01006KT 26/19 A3002 RMK A01 T02590193  RH  067%=      5-min Rain = 0
KCO1 140631Z 01009KT 26/19 A3001 RMK A01 T02590190  RH  066%=      5-min Rain = 0
KCO1 140632Z 01012KT 26/19 A3001 RMK A01 T02600189  RH  065%=      5-min Rain = 0
KCO1 140633Z 01012KT 26/19 A3001 RMK A01 T02600189  RH  065%=      5-min Rain = 0
KCO1 140634Z 01011KT 26/19 A3001 RMK A01 T02600191  RH  066%=      5-min Rain = 0
KCO1 140635Z 02009KT 26/19 A3001 RMK A01 T02590191  RH  066%=      5-min Rain = 0
KCO1 140636Z 02006KT 26/19 A3001 RMK A01 T02590191  RH  066%=      5-min Rain = 0
KCO1 140637Z 01004KT 26/19 A3001 RMK A01 T02580193  RH  067%=      5-min Rain = 0
KCO1 140638Z 03005KT 26/19 A3001 RMK A01 T02580190  RH  066%=      5-min Rain = 0
KCO1 140639Z 05003KT 26/19 A3001 RMK A01 T02580189  RH  066%=      5-min Rain = 0
KCO1 140640Z 04004KT 26/19 A3001 RMK A01 T02580191  RH  067%=      5-min Rain = 0
KCO1 140641Z 04006KT 26/19 A3001 RMK A01 T02580193  RH  067%=      5-min Rain = 0
KCO1 140642Z 04004KT 26/19 A3001 RMK A01 T02580191  RH  066%=      5-min Rain = 0
KCO1 140643Z 05005KT 26/19 A3001 RMK A01 T02570192  RH  067%=      5-min Rain = 0
KCO1 140644Z 06005KT 26/19 A3001 RMK A01 T02580193  RH  067%=      5-min Rain = 0
KCO1 140645Z 05005KT 26/19 A3001 RMK A01 T02570194  RH  068%=      5-min Rain = 0
KCO1 140646Z 05004KT 26/20 A3001 RMK A01 T02570195  RH  068%=      5-min Rain = 0
KCO1 140647Z 03005KT 26/20 A3001 RMK A01 T02570195  RH  068%=      5-min Rain = 0
KCO1 140648Z 02005KT 26/19 A3001 RMK A01 T02580193  RH  067%=      5-min Rain = 0
KCO1 140649Z 04003KT 26/19 A3001 RMK A01 T02590185  RH  064%=      5-min Rain = 0
KCO1 140650Z 02004KT 26/19 A3001 RMK A01 T02610191  RH  065%=      5-min Rain = 0
KCO1 140651Z 03004KT 26/19 A3001 RMK A01 T02620185  RH  062%=      5-min Rain = 0
KCO1 140652Z 04004KT 26/19 A3001 RMK A01 T02640187  RH  063%=      5-min Rain = 0
KCO1 140653Z 04005KT 27/19 A3001 RMK A01 T02650193  RH  064%=      5-min Rain = 0
KCO1 140654Z 03005KT 27/19 A3002 RMK A01 T02650194  RH  065%=      5-min Rain = 0
KCO1 140655Z 03005KT 26/19 A3002 RMK A01 T02640192  RH  065%=      5-min Rain = 0
KCO1 140656Z 04005KT 26/19 A3002 RMK A01 T02640192  RH  065%=      5-min Rain = 0
KCO1 140657Z 02005KT 26/20 A3002 RMK A01 T02630195  RH  066%=      5-min Rain = 0
KCO1 140658Z 02007KT 26/19 A3002 RMK A01 T02630194  RH  066%=      5-min Rain = 0
KCO1 140659Z 02006KT 26/19 A3002 RMK A01 T02620190  RH  064%=      5-min Rain = 0
KCO1 140700Z 02006KT 26/19 A3002 RMK A01 T02620189  RH  064%=      5-min Rain = 0
KCO1 140701Z 02005KT 26/19 A3002 RMK A01 T02630190  RH  064%=      5-min Rain = 0
KCO1 140702Z 02004KT 26/19 A3002 RMK A01 T02620193  RH  066%=      5-min Rain = 0
KCO1 140703Z 02005KT 26/20 A3002 RMK A01 T02610195  RH  067%=      5-min Rain = 0
KCO1 140704Z 03005KT 26/20 A3002 RMK A01 T02600195  RH  067%=      5-min Rain = 0
KCO1 140705Z 03006KT 26/20 A3002 RMK A01 T02590195  RH  068%=      5-min Rain = 0
KCO1 140706Z 02006KT 26/20 A3002 RMK A01 T02580196  RH  068%=      5-min Rain = 0
KCO1 140707Z 02006KT 26/20 A3002 RMK A01 T02570196  RH  069%=      5-min Rain = 0
KCO1 140708Z 02006KT 26/20 A3002 RMK A01 T02560197  RH  069%=      5-min Rain = 0
KCO1 140709Z 03006KT 26/20 A3002 RMK A01 T02550196  RH  070%=      5-min Rain = 0
KCO1 140710Z 03006KT 26/20 A3002 RMK A01 T02550198  RH  071%=      5-min Rain = 0
KCO1 140711Z 04006KT 25/20 A3002 RMK A01 T02540198  RH  071%=      5-min Rain = 0
KCO1 140712Z 04006KT 25/20 A3002 RMK A01 T02540199  RH  071%=      5-min Rain = 0
KCO1 140713Z 04006KT 25/20 A3002 RMK A01 T02530198  RH  072%=      5-min Rain = 0
KCO1 140714Z 04007KT 25/20 A3002 RMK A01 T02530199  RH  072%=      5-min Rain = 0
KCO1 140715Z 04008KT 25/20 A3002 RMK A01 T02530200  RH  072%=      5-min Rain = 0
KCO1 140716Z 05007KT 25/20 A3002 RMK A01 T02520199  RH  072%=      5-min Rain = 0
KCO1 140717Z 06007KT 25/20 A3002 RMK A01 T02530200  RH  073%=      5-min Rain = 0
KCO1 140718Z 07008KT 25/20 A3003 RMK A01 T02520200  RH  073%=      5-min Rain = 0
KCO1 140719Z 07008KT 25/20 A3003 RMK A01 T02520200  RH  073%=      5-min Rain = 0
KCO1 140720Z 08009KT 25/20 A3003 RMK A01 T02500199  RH  073%=      5-min Rain = 0
KCO1 140721Z 08008KT 25/20 A3003 RMK A01 T02500198  RH  073%=      5-min Rain = 0
KCO1 140722Z 08008KT 25/20 A3003 RMK A01 T02500199  RH  073%=      5-min Rain = 0
KCO1 140723Z 08007KT 25/20 A3003 RMK A01 T02500197  RH  073%=      5-min Rain = 0
KCO1 140724Z 08007KT 25/20 A3003 RMK A01 T02500198  RH  073%=      5-min Rain = 0
KCO1 140725Z 08008KT 25/20 A3003 RMK A01 T02500198  RH  073%=      5-min Rain = 0
KCO1 140726Z 08007KT 25/20 A3003 RMK A01 T02500197  RH  073%=      5-min Rain = 0
KCO1 140727Z 08008KT 25/20 A3003 RMK A01 T02500196  RH  072%=      5-min Rain = 0
KCO1 140728Z 08007KT 25/20 A3003 RMK A01 T02500196  RH  072%=      5-min Rain = 0
KCO1 140729Z 08007KT 25/20 A3003 RMK A01 T02510196  RH  071%=      5-min Rain = 0
KCO1 140730Z 07007KT 25/20 A3003 RMK A01 T02520195  RH  071%=      5-min Rain = 0
KCO1 140731Z 08007KT 25/19 A3003 RMK A01 T02520194  RH  070%=      5-min Rain = 0
KCO1 140732Z 08008KT 25/20 A3004 RMK A01 T02530195  RH  070%=      5-min Rain = 0
KCO1 140733Z 07008KT 25/19 A3004 RMK A01 T02540194  RH  070%=      5-min Rain = 0
KCO1 140734Z 07008KT 25/19 A3004 RMK A01 T02540193  RH  069%=      5-min Rain = 0
KCO1 140735Z 07008KT 26/19 A3004 RMK A01 T02550192  RH  068%=      5-min Rain = 0
KCO1 140736Z 06007KT 26/19 A3004 RMK A01 T02560190  RH  067%=      5-min Rain = 0
KCO1 140737Z 06007KT 26/19 A3004 RMK A01 T02570189  RH  066%=      5-min Rain = 0
KCO1 140738Z 06007KT 26/19 A3004 RMK A01 T02580189  RH  066%=      5-min Rain = 0
KCO1 140739Z 05007KT 26/19 A3004 RMK A01 T02580190  RH  066%=      5-min Rain = 0
KCO1 140740Z 02006KT 26/19 A3004 RMK A01 T02580194  RH  068%=      5-min Rain = 0
KCO1 140741Z 02006KT 26/20 A3004 RMK A01 T02580197  RH  069%=      5-min Rain = 0
KCO1 140742Z 02006KT 26/20 A3004 RMK A01 T02560198  RH  070%=      5-min Rain = 0
KCO1 140743Z 02006KT 25/20 A3004 RMK A01 T02540197  RH  070%=      5-min Rain = 0
KCO1 140744Z 03006KT 25/20 A3004 RMK A01 T02530197  RH  071%=      5-min Rain = 0
KCO1 140745Z 04005KT 25/20 A3004 RMK A01 T02530198  RH  071%=      5-min Rain = 0
KCO1 140746Z 05005KT 25/20 A3004 RMK A01 T02530198  RH  072%=      5-min Rain = 0
KCO1 140747Z 05005KT 25/20 A3004 RMK A01 T02520198  RH  072%=      5-min Rain = 0
KCO1 140748Z 05005KT 25/20 A3004 RMK A01 T02530198  RH  072%=      5-min Rain = 0
KCO1 140749Z 06005KT 25/20 A3004 RMK A01 T02520199  RH  072%=      5-min Rain = 0
KCO1 140750Z 05005KT 25/20 A3004 RMK A01 T02520199  RH  072%=      5-min Rain = 0
KCO1 140751Z 04004KT 25/20 A3004 RMK A01 T02520198  RH  072%=      5-min Rain = 0
KCO1 140752Z 04004KT 25/20 A3004 RMK A01 T02520198  RH  072%=      5-min Rain = 0
KCO1 140753Z 04004KT 25/20 A3004 RMK A01 T02520197  RH  072%=      5-min Rain = 0
KCO1 140754Z 03004KT 25/20 A3004 RMK A01 T02520197  RH  071%=      5-min Rain = 0
KCO1 140755Z 03003KT 25/20 A3004 RMK A01 T02530196  RH  071%=      5-min Rain = 0
KCO1 140756Z 03003KT 25/20 A3004 RMK A01 T02530195  RH  070%=      5-min Rain = 0
KCO1 140757Z 03004KT 25/19 A3005 RMK A01 T02530194  RH  069%=      5-min Rain = 0
KCO1 140758Z 03004KT 25/19 A3005 RMK A01 T02540192  RH  069%=      5-min Rain = 0
KCO1 140759Z 03005KT 26/19 A3005 RMK A01 T02550193  RH  068%=      5-min Rain = 0
KCO1 140800Z 03004KT 26/19 A3005 RMK A01 T02560191  RH  067%=      5-min Rain = 0
KCO1 140801Z 03004KT 26/19 A3005 RMK A01 T02560191  RH  067%=      5-min Rain = 0
KCO1 140802Z 04004KT 26/19 A3005 RMK A01 T02570191  RH  067%=      5-min Rain = 0
KCO1 140803Z 04004KT 26/19 A3005 RMK A01 T02570191  RH  067%=      5-min Rain = 0
KCO1 140804Z 04003KT 26/19 A3005 RMK A01 T02580191  RH  066%=      5-min Rain = 0
KCO1 140805Z 03004KT 26/19 A3005 RMK A01 T02580194  RH  068%=      5-min Rain = 0
KCO1 140806Z 03004KT 26/20 A3005 RMK A01 T02580195  RH  068%=      5-min Rain = 0
KCO1 140807Z 04003KT 26/20 A3005 RMK A01 T02570195  RH  068%=      5-min Rain = 0
KCO1 140808Z 04002KT 26/19 A3005 RMK A01 T02570194  RH  068%=      5-min Rain = 0
KCO1 140809Z 05003KT 26/19 A3005 RMK A01 T02570194  RH  068%=      5-min Rain = 0
KCO1 140810Z 05001KT 26/19 A3005 RMK A01 T02570194  RH  068%=      5-min Rain = 0
KCO1 140811Z 03000KT 26/19 A3005 RMK A01 T02560194  RH  068%=      5-min Rain = 0
KCO1 140812Z 29002KT 26/20 A3005 RMK A01 T02560195  RH  069%=      5-min Rain = 0
KCO1 140813Z 29004KT 26/20 A3005 RMK A01 T02560196  RH  069%=      5-min Rain = 0
KCO1 140814Z 29006KT 26/20 A3005 RMK A01 T02560199  RH  071%=      5-min Rain = 0
KCO1 140815Z 29007KT 25/20 A3005 RMK A01 T02540199  RH  072%=      5-min Rain = 0
KCO1 140816Z 30006KT 25/20 A3005 RMK A01 T02520198  RH  072%=      5-min Rain = 0
KCO1 140817Z 30005KT 25/20 A3005 RMK A01 T02520198  RH  072%=      5-min Rain = 0
KCO1 140818Z 31004KT 25/20 A3005 RMK A01 T02510196  RH  072%=      5-min Rain = 0
KCO1 140819Z 30002KT 25/20 A3005 RMK A01 T02510195  RH  071%=      5-min Rain = 0
KCO1 140820Z 31001KT 25/20 A3005 RMK A01 T02510197  RH  072%=      5-min Rain = 0
KCO1 140821Z 31001KT 25/20 A3005 RMK A01 T02510196  RH  071%=      5-min Rain = 0
KCO1 140822Z 00000KT 25/19 A3005 RMK A01 T02510194  RH  071%=      5-min Rain = 0
KCO1 140823Z 00000KT 25/19 A3005 RMK A01 T02510193  RH  070%=      5-min Rain = 0
KCO1 140824Z 33001KT 25/19 A3005 RMK A01 T02510192  RH  070%=      5-min Rain = 0
KCO1 140825Z 32002KT 25/19 A3005 RMK A01 T02510194  RH  071%=      5-min Rain = 0
KCO1 140826Z 33002KT 25/20 A3005 RMK A01 T02520195  RH  071%=      5-min Rain = 0
KCO1 140827Z 34003KT 25/20 A3005 RMK A01 T02530196  RH  071%=      5-min Rain = 0
KCO1 140828Z 35003KT 25/20 A3005 RMK A01 T02530202  RH  073%=      5-min Rain = 0
KCO1 140829Z 34003KT 25/20 A3005 RMK A01 T02530201  RH  073%=      5-min Rain = 0
KCO1 140830Z 35003KT 25/20 A3005 RMK A01 T02520198  RH  072%=      5-min Rain = 0
KCO1 140831Z 01002KT 25/20 A3005 RMK A01 T02520199  RH  072%=      5-min Rain = 0
KCO1 140832Z 03001KT 25/20 A3005 RMK A01 T02520197  RH  072%=      5-min Rain = 0
KCO1 140833Z 06001KT 25/20 A3005 RMK A01 T02520199  RH  072%=      5-min Rain = 0
KCO1 140834Z 09002KT 25/20 A3005 RMK A01 T02520201  RH  073%=      5-min Rain = 0
KCO1 140835Z 09002KT 25/20 A3005 RMK A01 T02520202  RH  074%=      5-min Rain = 0
KCO1 140836Z 09001KT 25/20 A3005 RMK A01 T02510203  RH  075%=      5-min Rain = 0
KCO1 140837Z 08001KT 25/20 A3005 RMK A01 T02510204  RH  075%=      5-min Rain = 0
KCO1 140838Z 05000KT 25/20 A3005 RMK A01 T02500204  RH  075%=      5-min Rain = 0
KCO1 140839Z 33001KT 25/20 A3005 RMK A01 T02500203  RH  075%=      5-min Rain = 0
KCO1 140840Z 29002KT 25/20 A3005 RMK A01 T02500204  RH  075%=      5-min Rain = 0
KCO1 140841Z 27004KT 25/21 A3005 RMK A01 T02500205  RH  076%=      5-min Rain = 0
KCO1 140842Z 26005KT 25/21 A3005 RMK A01 T02500206  RH  077%=      5-min Rain = 0
KCO1 140843Z 25005KT 25/20 A3005 RMK A01 T02490203  RH  075%=      5-min Rain = 0
KCO1 140844Z 24005KT 25/20 A3005 RMK A01 T02480201  RH  075%=      5-min Rain = 0
KCO1 140845Z 24004KT 25/20 A3005 RMK A01 T02480199  RH  074%=      5-min Rain = 0
KCO1 140846Z 23004KT 25/20 A3005 RMK A01 T02480197  RH  073%=      5-min Rain = 0
KCO1 140847Z 22002KT 25/20 A3005 RMK A01 T02490197  RH  073%=      5-min Rain = 0
KCO1 140848Z 21001KT 25/20 A3005 RMK A01 T02490197  RH  073%=      5-min Rain = 0
KCO1 140849Z 19001KT 25/20 A3005 RMK A01 T02500198  RH  073%=      5-min Rain = 0
KCO1 140850Z 18001KT 25/20 A3005 RMK A01 T02500199  RH  073%=      5-min Rain = 0
KCO1 140851Z 16000KT 25/20 A3005 RMK A01 T02500198  RH  073%=      5-min Rain = 0
KCO1 140852Z 16000KT 25/20 A3005 RMK A01 T02500197  RH  072%=      5-min Rain = 0
KCO1 140853Z 16000KT 25/19 A3005 RMK A01 T02500194  RH  071%=      5-min Rain = 0
KCO1 140854Z 16000KT 25/19 A3005 RMK A01 T02500193  RH  071%=      5-min Rain = 0
KCO1 140855Z 16001KT 25/20 A3005 RMK A01 T02510195  RH  071%=      5-min Rain = 0
KCO1 140856Z 17001KT 25/20 A3005 RMK A01 T02510198  RH  072%=      5-min Rain = 0
KCO1 140857Z 21001KT 25/20 A3005 RMK A01 T02520202  RH  074%=      5-min Rain = 0
KCO1 140858Z 23002KT 25/20 A3005 RMK A01 T02520201  RH  073%=      5-min Rain = 0
KCO1 140859Z 24003KT 25/20 A3005 RMK A01 T02520202  RH  074%=      5-min Rain = 0
KCO1 140900Z 24003KT 25/20 A3005 RMK A01 T02510202  RH  074%=      5-min Rain = 0
KCO1 140901Z 24003KT 25/20 A3005 RMK A01 T02510201  RH  074%=      5-min Rain = 0
KCO1 140902Z 24003KT 25/20 A3005 RMK A01 T02500202  RH  074%=      5-min Rain = 0
KCO1 140903Z 23003KT 25/20 A3005 RMK A01 T02500201  RH  074%=      5-min Rain = 0
KCO1 140904Z 23003KT 25/20 A3005 RMK A01 T02500201  RH  074%=      5-min Rain = 0
KCO1 140905Z 22003KT 25/20 A3005 RMK A01 T02500202  RH  075%=      5-min Rain = 0
KCO1 140906Z 22003KT 25/20 A3005 RMK A01 T02500204  RH  075%=      5-min Rain = 0
KCO1 140907Z 21003KT 25/20 A3005 RMK A01 T02500204  RH  075%=      5-min Rain = 0
KCO1 140908Z 20003KT 25/20 A3005 RMK A01 T02500203  RH  075%=      5-min Rain = 0
KCO1 140909Z 19003KT 25/20 A3005 RMK A01 T02500197  RH  073%=      5-min Rain = 0
KCO1 140910Z 19003KT 25/20 A3005 RMK A01 T02500195  RH  071%=      5-min Rain = 0
KCO1 140911Z 19003KT 25/20 A3005 RMK A01 T02520198  RH  072%=      5-min Rain = 0
KCO1 140912Z 19003KT 25/20 A3005 RMK A01 T02530200  RH  073%=      5-min Rain = 0
KCO1 140913Z 20003KT 25/20 A3005 RMK A01 T02520202  RH  073%=      5-min Rain = 0
KCO1 140914Z 23003KT 25/20 A3005 RMK A01 T02530201  RH  073%=      5-min Rain = 0
KCO1 140915Z 23003KT 25/20 A3005 RMK A01 T02520197  RH  071%=      5-min Rain = 0
KCO1 140916Z 23003KT 25/20 A3005 RMK A01 T02520197  RH  071%=      5-min Rain = 0
KCO1 140917Z 22003KT 25/20 A3005 RMK A01 T02520197  RH  072%=      5-min Rain = 0
KCO1 140918Z 20002KT 25/20 A3005 RMK A01 T02520199  RH  072%=      5-min Rain = 0
KCO1 140919Z 20003KT 25/20 A3005 RMK A01 T02520199  RH  073%=      5-min Rain = 0
KCO1 140920Z 18003KT 25/20 A3005 RMK A01 T02520199  RH  073%=      5-min Rain = 0
KCO1 140921Z 18003KT 25/20 A3005 RMK A01 T02520197  RH  072%=      5-min Rain = 0
KCO1 140922Z 16004KT 25/20 A3005 RMK A01 T02510198  RH  072%=      5-min Rain = 0
KCO1 140923Z 16004KT 25/20 A3005 RMK A01 T02510201  RH  074%=      5-min Rain = 0
KCO1 140924Z 15004KT 25/20 A3005 RMK A01 T02510203  RH  074%=      5-min Rain = 0
KCO1 140925Z 15004KT 25/20 A3005 RMK A01 T02500203  RH  075%=      5-min Rain = 0
KCO1 140926Z 14004KT 25/20 A3005 RMK A01 T02500204  RH  075%=      5-min Rain = 0
KCO1 140927Z 13004KT 25/20 A3005 RMK A01 T02500204  RH  076%=      5-min Rain = 0
KCO1 140928Z 14005KT 25/21 A3005 RMK A01 T02500205  RH  076%=      5-min Rain = 0
KCO1 140929Z 14005KT 25/21 A3005 RMK A01 T02490206  RH  077%=      5-min Rain = 0
KCO1 140930Z 14006KT 25/21 A3005 RMK A01 T02490208  RH  078%=      5-min Rain = 0
KCO1 140931Z 14006KT 25/21 A3005 RMK A01 T02490209  RH  078%=      5-min Rain = 0
KCO1 140932Z 15005KT 25/21 A3005 RMK A01 T02480208  RH  078%=      5-min Rain = 0
KCO1 140933Z 15005KT 25/21 A3005 RMK A01 T02480209  RH  079%=      5-min Rain = 0
KCO1 140934Z 16004KT 25/21 A3005 RMK A01 T02480208  RH  078%=      5-min Rain = 0
KCO1 140935Z 17004KT 25/21 A3005 RMK A01 T02480207  RH  078%=      5-min Rain = 0
KCO1 140936Z 18003KT 25/21 A3005 RMK A01 T02480207  RH  078%=      5-min Rain = 0
KCO1 140937Z 18003KT 25/21 A3005 RMK A01 T02480206  RH  078%=      5-min Rain = 0
KCO1 140938Z 18004KT 25/20 A3005 RMK A01 T02480203  RH  076%=      5-min Rain = 0
KCO1 140939Z 18004KT 25/20 A3005 RMK A01 T02480201  RH  075%=      5-min Rain = 0
KCO1 140940Z 17004KT 25/20 A3005 RMK A01 T02490201  RH  075%=      5-min Rain = 0
KCO1 140941Z 16005KT 25/20 A3005 RMK A01 T02490202  RH  075%=      5-min Rain = 0
KCO1 140942Z 16005KT 25/20 A3005 RMK A01 T02490202  RH  075%=      5-min Rain = 0
KCO1 140943Z 15006KT 25/20 A3005 RMK A01 T02490202  RH  075%=      5-min Rain = 0
KCO1 140944Z 14006KT 25/20 A3005 RMK A01 T02480201  RH  075%=      5-min Rain = 0
KCO1 140945Z 14005KT 25/20 A3005 RMK A01 T02480201  RH  075%=      5-min Rain = 0
KCO1 140946Z 14005KT 25/20 A3005 RMK A01 T02480201  RH  075%=      5-min Rain = 0
KCO1 140947Z 14004KT 25/20 A3005 RMK A01 T02480200  RH  075%=      5-min Rain = 0
KCO1 140948Z 15004KT 25/20 A3005 RMK A01 T02470200  RH  075%=      5-min Rain = 0
KCO1 140949Z 15004KT 25/20 A3005 RMK A01 T02470200  RH  075%=      5-min Rain = 0
KCO1 140950Z 16003KT 25/20 A3005 RMK A01 T02480201  RH  075%=      5-min Rain = 0
KCO1 140951Z 17003KT 25/20 A3005 RMK A01 T02480201  RH  075%=      5-min Rain = 0
KCO1 140952Z 18002KT 25/20 A3005 RMK A01 T02480201  RH  075%=      5-min Rain = 0
KCO1 140953Z 19003KT 25/20 A3005 RMK A01 T02480201  RH  075%=      5-min Rain = 0
KCO1 140954Z 19003KT 25/20 A3005 RMK A01 T02480200  RH  075%=      5-min Rain = 0
KCO1 140955Z 21002KT 25/20 A3005 RMK A01 T02480200  RH  075%=      5-min Rain = 0
KCO1 140956Z 21003KT 25/20 A3004 RMK A01 T02480200  RH  075%=      5-min Rain = 0
KCO1 140957Z 20003KT 25/20 A3004 RMK A01 T02480200  RH  075%=      5-min Rain = 0
KCO1 140958Z 19003KT 25/20 A3004 RMK A01 T02480202  RH  076%=      5-min Rain = 0
KCO1 140959Z 19003KT 25/21 A3004 RMK A01 T02480205  RH  077%=      5-min Rain = 0
KCO1 141000Z 19004KT 25/20 A3004 RMK A01 T02470204  RH  077%=      5-min Rain = 0
KCO1 141001Z 19005KT 25/20 A3004 RMK A01 T02460201  RH  076%=      5-min Rain = 0
KCO1 141002Z 18004KT 25/20 A3004 RMK A01 T02460202  RH  076%=      5-min Rain = 0
KCO1 141003Z 17004KT 25/20 A3004 RMK A01 T02460203  RH  077%=      5-min Rain = 0
KCO1 141004Z 17003KT 25/20 A3004 RMK A01 T02450204  RH  078%=      5-min Rain = 0
KCO1 141005Z 17003KT 25/20 A3004 RMK A01 T02450204  RH  078%=      5-min Rain = 0
KCO1 141006Z 17003KT 24/20 A3004 RMK A01 T02440204  RH  078%=      5-min Rain = 0
KCO1 141007Z 17004KT 24/20 A3004 RMK A01 T02440204  RH  079%=      5-min Rain = 0
KCO1 141008Z 17004KT 24/20 A3004 RMK A01 T02430204  RH  079%=      5-min Rain = 0
KCO1 141009Z 17004KT 24/20 A3004 RMK A01 T02430204  RH  079%=      5-min Rain = 0
KCO1 141010Z 17004KT 24/20 A3004 RMK A01 T02420204  RH  079%=      5-min Rain = 0
KCO1 141011Z 16003KT 24/20 A3004 RMK A01 T02420204  RH  079%=      5-min Rain = 0
KCO1 141012Z 16003KT 24/20 A3004 RMK A01 T02420204  RH  080%=      5-min Rain = 0
KCO1 141013Z 15003KT 24/21 A3004 RMK A01 T02420205  RH  080%=      5-min Rain = 0
KCO1 141014Z 15002KT 24/21 A3004 RMK A01 T02420205  RH  080%=      5-min Rain = 0
KCO1 141015Z 13002KT 24/21 A3004 RMK A01 T02420205  RH  080%=      5-min Rain = 0
KCO1 141016Z 13002KT 24/21 A3004 RMK A01 T02410205  RH  080%=      5-min Rain = 0
KCO1 141017Z 13003KT 24/21 A3004 RMK A01 T02410205  RH  080%=      5-min Rain = 0
KCO1 141018Z 14003KT 24/21 A3004 RMK A01 T02420206  RH  081%=      5-min Rain = 0
KCO1 141019Z 14003KT 24/21 A3004 RMK A01 T02420207  RH  081%=      5-min Rain = 0
KCO1 141020Z 14003KT 24/21 A3004 RMK A01 T02420208  RH  081%=      5-min Rain = 0
KCO1 141021Z 14003KT 24/21 A3004 RMK A01 T02420208  RH  081%=      5-min Rain = 0
KCO1 141022Z 14003KT 24/21 A3004 RMK A01 T02420208  RH  081%=      5-min Rain = 0
KCO1 141023Z 14003KT 24/21 A3004 RMK A01 T02420208  RH  082%=      5-min Rain = 0
KCO1 141024Z 14002KT 24/21 A3004 RMK A01 T02410208  RH  082%=      5-min Rain = 0
KCO1 141025Z 14002KT 24/21 A3004 RMK A01 T02410208  RH  082%=      5-min Rain = 0
KCO1 141026Z 13001KT 24/21 A3004 RMK A01 T02410207  RH  082%=      5-min Rain = 0
KCO1 141027Z 13000KT 24/21 A3004 RMK A01 T02410207  RH  081%=      5-min Rain = 0
KCO1 141028Z 13000KT 24/21 A3004 RMK A01 T02410206  RH  081%=      5-min Rain = 0
KCO1 141029Z 00000KT 24/21 A3004 RMK A01 T02410207  RH  081%=      5-min Rain = 0
KCO1 141030Z 35001KT 24/21 A3004 RMK A01 T02420209  RH  082%=      5-min Rain = 0
KCO1 141031Z 35002KT 24/21 A3004 RMK A01 T02430209  RH  081%=      5-min Rain = 0
KCO1 141032Z 36001KT 24/21 A3004 RMK A01 T02430207  RH  081%=      5-min Rain = 0
KCO1 141033Z 03001KT 24/21 A3004 RMK A01 T02430207  RH  080%=      5-min Rain = 0
KCO1 141034Z 05002KT 24/21 A3004 RMK A01 T02430205  RH  079%=      5-min Rain = 0
KCO1 141035Z 06002KT 24/21 A3004 RMK A01 T02420206  RH  080%=      5-min Rain = 0
KCO1 141036Z 06003KT 24/21 A3004 RMK A01 T02430207  RH  081%=      5-min Rain = 0
KCO1 141037Z 07003KT 24/21 A3004 RMK A01 T02430208  RH  081%=      5-min Rain = 0
KCO1 141038Z 07004KT 24/21 A3004 RMK A01 T02420207  RH  081%=      5-min Rain = 0
KCO1 141039Z 07004KT 24/21 A3004 RMK A01 T02430208  RH  081%=      5-min Rain = 0
KCO1 141040Z 07005KT 24/21 A3004 RMK A01 T02420207  RH  081%=      5-min Rain = 0
KCO1 141041Z 08005KT 24/21 A3004 RMK A01 T02420205  RH  080%=      5-min Rain = 0
KCO1 141042Z 08006KT 24/20 A3003 RMK A01 T02420204  RH  079%=      5-min Rain = 0
KCO1 141043Z 09007KT 24/20 A3003 RMK A01 T02420203  RH  079%=      5-min Rain = 0
KCO1 141044Z 09007KT 24/20 A3003 RMK A01 T02420201  RH  078%=      5-min Rain = 0
KCO1 141045Z 09007KT 24/20 A3003 RMK A01 T02420201  RH  078%=      5-min Rain = 0
KCO1 141046Z 09007KT 24/20 A3003 RMK A01 T02430199  RH  077%=      5-min Rain = 0
KCO1 141047Z 09006KT 24/20 A3003 RMK A01 T02430195  RH  075%=      5-min Rain = 0
KCO1 141048Z 08004KT 24/19 A3003 RMK A01 T02430193  RH  074%=      5-min Rain = 0
KCO1 141049Z 08004KT 24/19 A3004 RMK A01 T02430192  RH  073%=      5-min Rain = 0
KCO1 141050Z 07004KT 24/19 A3004 RMK A01 T02440192  RH  073%=      5-min Rain = 0
KCO1 141051Z 06004KT 25/19 A3004 RMK A01 T02450193  RH  073%=      5-min Rain = 0
KCO1 141052Z 07004KT 25/19 A3004 RMK A01 T02460193  RH  072%=      5-min Rain = 0
KCO1 141053Z 07004KT 25/19 A3004 RMK A01 T02460192  RH  072%=      5-min Rain = 0
KCO1 141054Z 08004KT 25/19 A3004 RMK A01 T02460192  RH  072%=      5-min Rain = 0
KCO1 141055Z 07004KT 25/19 A3004 RMK A01 T02460193  RH  072%=      5-min Rain = 0
KCO1 141056Z 07004KT 25/19 A3004 RMK A01 T02460194  RH  073%=      5-min Rain = 0
KCO1 141057Z 07003KT 25/19 A3004 RMK A01 T02450193  RH  073%=      5-min Rain = 0
KCO1 141058Z 08003KT 25/19 A3004 RMK A01 T02450194  RH  073%=      5-min Rain = 0
KCO1 141059Z 07002KT 25/19 A3004 RMK A01 T02450194  RH  073%=      5-min Rain = 0
KCO1 141100Z 06000KT 25/19 A3004 RMK A01 T02450194  RH  073%=      5-min Rain = 0
KCO1 141101Z 29001KT 24/19 A3004 RMK A01 T02440193  RH  073%=      5-min Rain = 0
KCO1 141102Z 30003KT 24/20 A3004 RMK A01 T02440195  RH  074%=      5-min Rain = 0
KCO1 141103Z 29004KT 24/20 A3004 RMK A01 T02440197  RH  075%=      5-min Rain = 0
KCO1 141104Z 30003KT 24/20 A3004 RMK A01 T02430198  RH  076%=      5-min Rain = 0
KCO1 141105Z 31002KT 24/20 A3004 RMK A01 T02420199  RH  077%=      5-min Rain = 0
KCO1 141106Z 31002KT 24/20 A3004 RMK A01 T02410200  RH  078%=      5-min Rain = 0
KCO1 141107Z 31001KT 24/20 A3004 RMK A01 T02400199  RH  078%=      5-min Rain = 0
KCO1 141108Z 33001KT 24/20 A3004 RMK A01 T02390198  RH  078%=      5-min Rain = 0
KCO1 141109Z 04001KT 24/20 A3004 RMK A01 T02390198  RH  078%=      5-min Rain = 0
KCO1 141110Z 06001KT 24/19 A3004 RMK A01 T02390194  RH  076%=      5-min Rain = 0
KCO1 141111Z 06001KT 24/20 A3005 RMK A01 T02390199  RH  078%=      5-min Rain = 0
KCO1 141112Z 06000KT 24/20 A3005 RMK A01 T02390201  RH  079%=      5-min Rain = 0
KCO1 141113Z 06001KT 24/20 A3005 RMK A01 T02390203  RH  080%=      5-min Rain = 0
KCO1 141114Z 06001KT 24/20 A3005 RMK A01 T02380201  RH  080%=      5-min Rain = 0
KCO1 141115Z 06001KT 24/20 A3005 RMK A01 T02380200  RH  079%=      5-min Rain = 0
KCO1 141116Z 08001KT 24/20 A3005 RMK A01 T02370199  RH  079%=      5-min Rain = 0
KCO1 141117Z 09001KT 24/20 A3005 RMK A01 T02370199  RH  079%=      5-min Rain = 0
KCO1 141118Z 09001KT 24/20 A3005 RMK A01 T02370199  RH  079%=      5-min Rain = 0
KCO1 141119Z 00000KT 24/20 A3005 RMK A01 T02370199  RH  079%=      5-min Rain = 0
KCO1 141120Z 00000KT 24/20 A3005 RMK A01 T02370199  RH  079%=      5-min Rain = 0
KCO1 141121Z 00000KT 24/20 A3005 RMK A01 T02370199  RH  079%=      5-min Rain = 0
KCO1 141122Z 13000KT 24/20 A3005 RMK A01 T02370198  RH  079%=      5-min Rain = 0
KCO1 141123Z 13001KT 24/20 A3005 RMK A01 T02360197  RH  079%=      5-min Rain = 0
KCO1 141124Z 14001KT 24/20 A3005 RMK A01 T02370197  RH  078%=      5-min Rain = 0
KCO1 141125Z 13002KT 24/20 A3005 RMK A01 T02370195  RH  077%=      5-min Rain = 0
KCO1 141126Z 13002KT 24/20 A3005 RMK A01 T02380198  RH  078%=      5-min Rain = 0
KCO1 141127Z 13002KT 24/20 A3005 RMK A01 T02390202  RH  080%=      5-min Rain = 0
KCO1 141128Z 12002KT 24/21 A3005 RMK A01 T02390205  RH  081%=      5-min Rain = 0
KCO1 141129Z 11002KT 24/21 A3005 RMK A01 T02380205  RH  082%=      5-min Rain = 0
KCO1 141130Z 11002KT 24/20 A3005 RMK A01 T02370204  RH  082%=      5-min Rain = 0
KCO1 141131Z 10002KT 24/20 A3005 RMK A01 T02360203  RH  082%=      5-min Rain = 0
KCO1 141132Z 09002KT 24/20 A3005 RMK A01 T02360204  RH  082%=      5-min Rain = 0
KCO1 141133Z 07001KT 24/21 A3005 RMK A01 T02360205  RH  082%=      5-min Rain = 0
KCO1 141134Z 32002KT 24/20 A3005 RMK A01 T02360203  RH  082%=      5-min Rain = 0
KCO1 141135Z 32003KT 24/20 A3005 RMK A01 T02360202  RH  081%=      5-min Rain = 0
KCO1 141136Z 33003KT 24/20 A3005 RMK A01 T02350201  RH  081%=      5-min Rain = 0
KCO1 141137Z 35002KT 24/20 A3005 RMK A01 T02350200  RH  081%=      5-min Rain = 0
KCO1 141138Z 36001KT 24/20 A3005 RMK A01 T02350200  RH  081%=      5-min Rain = 0
KCO1 141139Z 01001KT 24/20 A3005 RMK A01 T02350198  RH  080%=      5-min Rain = 0
KCO1 141140Z 01001KT 24/20 A3005 RMK A01 T02350198  RH  080%=      5-min Rain = 0
KCO1 141141Z 34002KT 24/20 A3005 RMK A01 T02360200  RH  081%=      5-min Rain = 0
KCO1 141142Z 33002KT 24/20 A3005 RMK A01 T02370204  RH  082%=      5-min Rain = 0
KCO1 141143Z 33002KT 24/20 A3005 RMK A01 T02370202  RH  080%=      5-min Rain = 0
KCO1 141144Z 33002KT 24/20 A3005 RMK A01 T02370200  RH  079%=      5-min Rain = 0
KCO1 141145Z 33003KT 24/20 A3005 RMK A01 T02370198  RH  079%=      5-min Rain = 0
KCO1 141146Z 33002KT 24/20 A3005 RMK A01 T02380198  RH  078%=      5-min Rain = 0
KCO1 141147Z 33002KT 24/20 A3006 RMK A01 T02380198  RH  078%=      5-min Rain = 0
KCO1 141148Z 33001KT 24/20 A3006 RMK A01 T02380200  RH  079%=      5-min Rain = 0
KCO1 141149Z 33001KT 24/20 A3006 RMK A01 T02380202  RH  080%=      5-min Rain = 0
KCO1 141150Z 33001KT 24/20 A3006 RMK A01 T02380202  RH  080%=      5-min Rain = 0
KCO1 141151Z 33002KT 24/20 A3006 RMK A01 T02370201  RH  080%=      5-min Rain = 0
KCO1 141152Z 33001KT 24/20 A3006 RMK A01 T02370199  RH  080%=      5-min Rain = 0
KCO1 141153Z 34002KT 24/20 A3006 RMK A01 T02360199  RH  080%=      5-min Rain = 0
KCO1 141154Z 34002KT 24/20 A3006 RMK A01 T02360198  RH  080%=      5-min Rain = 0
KCO1 141155Z 34002KT 24/20 A3006 RMK A01 T02350198  RH  079%=      5-min Rain = 0
KCO1 141156Z 35002KT 24/20 A3006 RMK A01 T02350197  RH  079%=      5-min Rain = 0
KCO1 141157Z 36002KT 24/20 A3007 RMK A01 T02350198  RH  080%=      5-min Rain = 0
KCO1 141158Z 00002KT 24/20 A3007 RMK A01 T02350199  RH  080%=      5-min Rain = 0
KCO1 141159Z 00002KT 24/20 A3007 RMK A01 T02360200  RH  080%=      5-min Rain = 0
KCO1 141200Z 36003KT 24/20 A3007 RMK A01 T02360202  RH  081%=      5-min Rain = 0
KCO1 141201Z 34003KT 24/20 A3007 RMK A01 T02360201  RH  081%=      5-min Rain = 0
KCO1 141202Z 33003KT 24/20 A3007 RMK A01 T02360201  RH  081%=      5-min Rain = 0
KCO1 141203Z 33003KT 24/20 A3007 RMK A01 T02360200  RH  080%=      5-min Rain = 0
KCO1 141204Z 33002KT 24/20 A3007 RMK A01 T02360200  RH  080%=      5-min Rain = 0
KCO1 141205Z 34002KT 24/20 A3007 RMK A01 T02370202  RH  081%=      5-min Rain = 0
KCO1 141206Z 34001KT 24/20 A3007 RMK A01 T02370200  RH  080%=      5-min Rain = 0
KCO1 141207Z 33001KT 24/20 A3007 RMK A01 T02360198  RH  079%=      5-min Rain = 0
KCO1 141208Z 31002KT 24/20 A3007 RMK A01 T02360196  RH  078%=      5-min Rain = 0
KCO1 141209Z 30002KT 24/20 A3007 RMK A01 T02370195  RH  077%=      5-min Rain = 0
KCO1 141210Z 30002KT 24/19 A3007 RMK A01 T02360194  RH  077%=      5-min Rain = 0
KCO1 141211Z 31001KT 24/20 A3007 RMK A01 T02370195  RH  077%=      5-min Rain = 0
KCO1 141212Z 32001KT 24/20 A3007 RMK A01 T02380196  RH  077%=      5-min Rain = 0
KCO1 141213Z 34001KT 24/20 A3007 RMK A01 T02380195  RH  077%=      5-min Rain = 0
KCO1 141214Z 35001KT 24/20 A3007 RMK A01 T02380195  RH  077%=      5-min Rain = 0
KCO1 141215Z 35001KT 24/20 A3007 RMK A01 T02380196  RH  077%=      5-min Rain = 0
KCO1 141216Z 35000KT 24/20 A3007 RMK A01 T02380196  RH  078%=      5-min Rain = 0
KCO1 141217Z 02001KT 24/20 A3007 RMK A01 T02380196  RH  077%=      5-min Rain = 0
KCO1 141218Z 04001KT 24/20 A3007 RMK A01 T02380197  RH  078%=      5-min Rain = 0
KCO1 141219Z 08001KT 24/20 A3007 RMK A01 T02380202  RH  080%=      5-min Rain = 0
KCO1 141220Z 10002KT 24/21 A3007 RMK A01 T02380205  RH  082%=      5-min Rain = 0
KCO1 141221Z 11002KT 24/21 A3007 RMK A01 T02380207  RH  083%=      5-min Rain = 0
KCO1 141222Z 13002KT 24/21 A3007 RMK A01 T02380207  RH  083%=      5-min Rain = 0
KCO1 141223Z 14004KT 24/21 A3007 RMK A01 T02370207  RH  083%=      5-min Rain = 0
KCO1 141224Z 14003KT 24/21 A3007 RMK A01 T02370207  RH  084%=      5-min Rain = 0
KCO1 141225Z 13003KT 24/21 A3007 RMK A01 T02370207  RH  084%=      5-min Rain = 0
KCO1 141226Z 13003KT 24/21 A3007 RMK A01 T02360207  RH  083%=      5-min Rain = 0
KCO1 141227Z 13003KT 24/21 A3007 RMK A01 T02360206  RH  083%=      5-min Rain = 0
KCO1 141228Z 13003KT 24/21 A3007 RMK A01 T02360205  RH  083%=      5-min Rain = 0
KCO1 141229Z 12003KT 24/21 A3007 RMK A01 T02360205  RH  083%=      5-min Rain = 0
KCO1 141230Z 12003KT 24/21 A3007 RMK A01 T02360205  RH  083%=      5-min Rain = 0
KCO1 141231Z 12003KT 24/21 A3007 RMK A01 T02360205  RH  083%=      5-min Rain = 0
KCO1 141232Z 12003KT 24/21 A3008 RMK A01 T02370206  RH  083%=      5-min Rain = 0
KCO1 141233Z 11002KT 24/21 A3008 RMK A01 T02370206  RH  083%=      5-min Rain = 0
KCO1 141234Z 11002KT 24/21 A3008 RMK A01 T02370206  RH  083%=      5-min Rain = 0
KCO1 141235Z 11001KT 24/21 A3008 RMK A01 T02370206  RH  083%=      5-min Rain = 0
KCO1 141236Z 11001KT 24/21 A3008 RMK A01 T02380207  RH  083%=      5-min Rain = 0
KCO1 141237Z 11000KT 24/21 A3008 RMK A01 T02380206  RH  082%=      5-min Rain = 0
KCO1 141238Z 11000KT 24/20 A3008 RMK A01 T02380201  RH  080%=      5-min Rain = 0
KCO1 141239Z 00000KT 24/20 A3008 RMK A01 T02380198  RH  079%=      5-min Rain = 0
KCO1 141240Z 00000KT 24/20 A3008 RMK A01 T02380196  RH  077%=      5-min Rain = 0
KCO1 141241Z 25000KT 24/20 A3008 RMK A01 T02400201  RH  079%=      5-min Rain = 0
KCO1 141242Z 26000KT 24/20 A3008 RMK A01 T02420204  RH  080%=      5-min Rain = 0
KCO1 141243Z 26001KT 24/21 A3008 RMK A01 T02420206  RH  080%=      5-min Rain = 0
KCO1 141244Z 26000KT 24/21 A3008 RMK A01 T02420207  RH  081%=      5-min Rain = 0
KCO1 141245Z 26001KT 24/21 A3008 RMK A01 T02420208  RH  081%=      5-min Rain = 0
KCO1 141246Z 26001KT 24/21 A3008 RMK A01 T02420208  RH  081%=      5-min Rain = 0
KCO1 141247Z 26001KT 24/21 A3008 RMK A01 T02410208  RH  082%=      5-min Rain = 0
KCO1 141248Z 26000KT 24/21 A3008 RMK A01 T02410207  RH  081%=      5-min Rain = 0
KCO1 141249Z 00000KT 24/21 A3008 RMK A01 T02410206  RH  081%=      5-min Rain = 0
KCO1 141250Z 00000KT 24/21 A3008 RMK A01 T02410207  RH  081%=      5-min Rain = 0
KCO1 141251Z 00000KT 24/21 A3009 RMK A01 T02410210  RH  083%=      5-min Rain = 0
KCO1 141252Z 00000KT 24/21 A3009 RMK A01 T02410210  RH  083%=      5-min Rain = 0
KCO1 141253Z 00000KT 24/21 A3009 RMK A01 T02410209  RH  082%=      5-min Rain = 0
KCO1 141254Z 26000KT 24/21 A3009 RMK A01 T02410210  RH  082%=      5-min Rain = 0
KCO1 141255Z 02001KT 24/21 A3009 RMK A01 T02410209  RH  082%=      5-min Rain = 0
KCO1 141256Z 02001KT 24/21 A3009 RMK A01 T02410210  RH  083%=      5-min Rain = 0
KCO1 141257Z 02000KT 24/21 A3009 RMK A01 T02420209  RH  082%=      5-min Rain = 0
KCO1 141258Z 00000KT 24/21 A3009 RMK A01 T02410208  RH  082%=      5-min Rain = 0
KCO1 141259Z 00000KT 24/21 A3009 RMK A01 T02420209  RH  082%=      5-min Rain = 0
KCO1 141300Z 00000KT 24/21 A3009 RMK A01 T02420210  RH  082%=      5-min Rain = 0
KCO1 141301Z 02000KT 24/21 A3009 RMK A01 T02430211  RH  083%=      5-min Rain = 0
KCO1 141302Z 02000KT 24/21 A3009 RMK A01 T02430211  RH  083%=      5-min Rain = 0
KCO1 141303Z 02001KT 24/21 A3009 RMK A01 T02430209  RH  081%=      5-min Rain = 0
KCO1 141304Z 01001KT 24/21 A3009 RMK A01 T02420208  RH  081%=      5-min Rain = 0
KCO1 141305Z 01001KT 24/21 A3009 RMK A01 T02430207  RH  080%=      5-min Rain = 0
KCO1 141306Z 01001KT 24/21 A3009 RMK A01 T02420205  RH  080%=      5-min Rain = 0
KCO1 141307Z 01001KT 24/20 A3009 RMK A01 T02420203  RH  078%=      5-min Rain = 0
KCO1 141308Z 01000KT 24/20 A3009 RMK A01 T02430203  RH  079%=      5-min Rain = 0
KCO1 141309Z 00000KT 24/20 A3009 RMK A01 T02430202  RH  078%=      5-min Rain = 0
KCO1 141310Z 00000KT 24/20 A3009 RMK A01 T02430199  RH  076%=      5-min Rain = 0
KCO1 141311Z 00000KT 24/19 A3009 RMK A01 T02430193  RH  074%=      5-min Rain = 0
KCO1 141312Z 00000KT 24/20 A3009 RMK A01 T02440197  RH  075%=      5-min Rain = 0
KCO1 141313Z 00000KT 25/20 A3009 RMK A01 T02460202  RH  077%=      5-min Rain = 0
KCO1 141314Z 34000KT 25/20 A3009 RMK A01 T02470204  RH  077%=      5-min Rain = 0
KCO1 141315Z 34001KT 25/20 A3009 RMK A01 T02480204  RH  077%=      5-min Rain = 0
KCO1 141316Z 34001KT 25/21 A301 RMK A01 T02480206  RH  077%=      5-min Rain = 0
KCO1 141317Z 32001KT 25/21 A301 RMK A01 T02490211  RH  079%=      5-min Rain = 0
KCO1 141318Z 30002KT 25/21 A301 RMK A01 T02490212  RH  080%=      5-min Rain = 0
KCO1 141319Z 29002KT 25/21 A301 RMK A01 T02490212  RH  080%=      5-min Rain = 0
KCO1 141320Z 29002KT 25/21 A301 RMK A01 T02480212  RH  080%=      5-min Rain = 0
KCO1 141321Z 29001KT 25/21 A301 RMK A01 T02470211  RH  081%=      5-min Rain = 0
KCO1 141322Z 30001KT 25/21 A301 RMK A01 T02460211  RH  081%=      5-min Rain = 0
KCO1 141323Z 30001KT 25/21 A301 RMK A01 T02460210  RH  081%=      5-min Rain = 0
KCO1 141324Z 30001KT 25/21 A301 RMK A01 T02450211  RH  081%=      5-min Rain = 0
KCO1 141325Z 30001KT 25/21 A301 RMK A01 T02450211  RH  081%=      5-min Rain = 0
KCO1 141326Z 30000KT 25/21 A301 RMK A01 T02460211  RH  081%=      5-min Rain = 0
KCO1 141327Z 31001KT 25/21 A301 RMK A01 T02450210  RH  081%=      5-min Rain = 0
KCO1 141328Z 32001KT 25/21 A301 RMK A01 T02460208  RH  080%=      5-min Rain = 0
KCO1 141329Z 34001KT 25/21 A301 RMK A01 T02450207  RH  079%=      5-min Rain = 0
KCO1 141330Z 35002KT 25/21 A301 RMK A01 T02450206  RH  079%=      5-min Rain = 0
KCO1 141331Z 35002KT 25/21 A301 RMK A01 T02460206  RH  078%=      5-min Rain = 0
KCO1 141332Z 35003KT 25/20 A301 RMK A01 T02460204  RH  077%=      5-min Rain = 0
KCO1 141333Z 35003KT 25/20 A301 RMK A01 T02460202  RH  077%=      5-min Rain = 0
KCO1 141334Z 34003KT 25/20 A301 RMK A01 T02470203  RH  077%=      5-min Rain = 0
KCO1 141335Z 34003KT 25/20 A301 RMK A01 T02460202  RH  076%=      5-min Rain = 0
KCO1 141336Z 34003KT 25/20 A301 RMK A01 T02460199  RH  075%=      5-min Rain = 0
KCO1 141337Z 34003KT 25/20 A3011 RMK A01 T02460200  RH  075%=      5-min Rain = 0
KCO1 141338Z 35004KT 25/20 A3011 RMK A01 T02460202  RH  076%=      5-min Rain = 0
KCO1 141339Z 35004KT 25/20 A3011 RMK A01 T02470204  RH  077%=      5-min Rain = 0
KCO1 141340Z 35004KT 25/21 A3011 RMK A01 T02470205  RH  077%=      5-min Rain = 0
KCO1 141341Z 35004KT 25/20 A3011 RMK A01 T02460204  RH  077%=      5-min Rain = 0
KCO1 141342Z 34004KT 25/20 A3011 RMK A01 T02460204  RH  077%=      5-min Rain = 0
KCO1 141343Z 34004KT 25/20 A3011 RMK A01 T02460204  RH  078%=      5-min Rain = 0
KCO1 141344Z 34003KT 25/20 A3011 RMK A01 T02450204  RH  078%=      5-min Rain = 0
KCO1 141345Z 32003KT 25/21 A3011 RMK A01 T02450206  RH  079%=      5-min Rain = 0
KCO1 141346Z 32003KT 25/21 A3011 RMK A01 T02460207  RH  079%=      5-min Rain = 0
KCO1 141347Z 33003KT 25/21 A3011 RMK A01 T02450207  RH  079%=      5-min Rain = 0
KCO1 141348Z 33003KT 25/21 A3011 RMK A01 T02460209  RH  080%=      5-min Rain = 0
KCO1 141349Z 32003KT 25/21 A3011 RMK A01 T02460209  RH  080%=      5-min Rain = 0
KCO1 141350Z 33003KT 25/21 A3011 RMK A01 T02460209  RH  080%=      5-min Rain = 0
KCO1 141351Z 33004KT 25/21 A3011 RMK A01 T02460210  RH  081%=      5-min Rain = 0
KCO1 141352Z 33004KT 25/21 A3011 RMK A01 T02460211  RH  081%=      5-min Rain = 0
KCO1 141353Z 33004KT 25/21 A3011 RMK A01 T02460212  RH  081%=      5-min Rain = 0
KCO1 141354Z 34003KT 25/21 A3011 RMK A01 T02460213  RH  082%=      5-min Rain = 0
KCO1 141355Z 33004KT 25/21 A3011 RMK A01 T02460214  RH  082%=      5-min Rain = 0
KCO1 141356Z 33004KT 25/21 A3011 RMK A01 T02460214  RH  082%=      5-min Rain = 0
KCO1 141357Z 33004KT 25/21 A3011 RMK A01 T02460214  RH  083%=      5-min Rain = 0
KCO1 141358Z 33003KT 25/21 A3011 RMK A01 T02460214  RH  082%=      5-min Rain = 0
KCO1 141359Z 33004KT 25/21 A3011 RMK A01 T02450214  RH  083%=      5-min Rain = 0
KCO1 141400Z 33004KT 25/21 A3011 RMK A01 T02450213  RH  082%=      5-min Rain = 0
KCO1 141401Z 33003KT 25/21 A3011 RMK A01 T02450214  RH  083%=      5-min Rain = 0
KCO1 141402Z 33004KT 25/21 A3011 RMK A01 T02460214  RH  083%=      5-min Rain = 0
KCO1 141403Z 33004KT 25/21 A3011 RMK A01 T02460214  RH  083%=      5-min Rain = 0
KCO1 141404Z 33004KT 25/21 A3011 RMK A01 T02460212  RH  081%=      5-min Rain = 0
KCO1 141405Z 33004KT 25/21 A3011 RMK A01 T02460213  RH  082%=      5-min Rain = 0
KCO1 141406Z 33003KT 25/21 A3011 RMK A01 T02470214  RH  082%=      5-min Rain = 0
KCO1 141407Z 33003KT 25/21 A3012 RMK A01 T02480213  RH  081%=      5-min Rain = 0
KCO1 141408Z 33004KT 25/21 A3012 RMK A01 T02490212  RH  080%=      5-min Rain = 0
KCO1 141409Z 33004KT 25/21 A3012 RMK A01 T02490212  RH  080%=      5-min Rain = 0
KCO1 141410Z 33004KT 25/21 A3012 RMK A01 T02490210  RH  079%=      5-min Rain = 0
KCO1 141411Z 33003KT 25/21 A3012 RMK A01 T02490212  RH  080%=      5-min Rain = 0
KCO1 141412Z 34003KT 25/21 A3012 RMK A01 T02500214  RH  080%=      5-min Rain = 0
KCO1 141413Z 34003KT 25/21 A3012 RMK A01 T02500213  RH  080%=      5-min Rain = 0
KCO1 141414Z 34003KT 25/21 A3012 RMK A01 T02500212  RH  079%=      5-min Rain = 0
KCO1 141415Z 33002KT 25/21 A3012 RMK A01 T02500212  RH  079%=      5-min Rain = 0
KCO1 141416Z 35002KT 25/21 A3012 RMK A01 T02510213  RH  079%=      5-min Rain = 0
KCO1 141417Z 34003KT 25/21 A3012 RMK A01 T02520210  RH  078%=      5-min Rain = 0
KCO1 141418Z 34003KT 25/21 A3012 RMK A01 T02510206  RH  076%=      5-min Rain = 0
KCO1 141419Z 35003KT 25/21 A3012 RMK A01 T02520205  RH  075%=      5-min Rain = 0
KCO1 141420Z 35004KT 25/21 A3012 RMK A01 T02530208  RH  076%=      5-min Rain = 0
KCO1 141421Z 35004KT 25/20 A3012 RMK A01 T02540204  RH  074%=      5-min Rain = 0
KCO1 141422Z 35004KT 25/20 A3012 RMK A01 T02540201  RH  073%=      5-min Rain = 0
KCO1 141423Z 35003KT 26/20 A3012 RMK A01 T02550204  RH  073%=      5-min Rain = 0
KCO1 141424Z 35004KT 26/20 A3012 RMK A01 T02560204  RH  073%=      5-min Rain = 0
KCO1 141425Z 35004KT 26/20 A3012 RMK A01 T02570204  RH  073%=      5-min Rain = 0
KCO1 141426Z 34004KT 26/20 A3012 RMK A01 T02570204  RH  073%=      5-min Rain = 0
KCO1 141427Z 35004KT 26/21 A3012 RMK A01 T02570205  RH  073%=      5-min Rain = 0
KCO1 141428Z 35004KT 26/20 A3012 RMK A01 T02570204  RH  072%=      5-min Rain = 0
KCO1 141429Z 35004KT 26/20 A3012 RMK A01 T02570201  RH  071%=      5-min Rain = 0
KCO1 141430Z 35004KT 26/21 A3012 RMK A01 T02580206  RH  073%=      5-min Rain = 0
KCO1 141431Z 35005KT 26/20 A3012 RMK A01 T02590202  RH  071%=      5-min Rain = 0
KCO1 141432Z 36004KT 26/20 A3012 RMK A01 T02590201  RH  070%=      5-min Rain = 0
KCO1 141433Z 36004KT 26/20 A3013 RMK A01 T02590200  RH  070%=      5-min Rain = 0
KCO1 141434Z 35006KT 26/20 A3013 RMK A01 T02600196  RH  068%=      5-min Rain = 0
KCO1 141435Z 36004KT 26/20 A3013 RMK A01 T02610197  RH  068%=      5-min Rain = 0
KCO1 141436Z 00004KT 26/20 A3013 RMK A01 T02620199  RH  068%=      5-min Rain = 0
KCO1 141437Z 36005KT 26/19 A3013 RMK A01 T02630193  RH  065%=      5-min Rain = 0
KCO1 141438Z 01006KT 26/20 A3013 RMK A01 T02640195  RH  066%=      5-min Rain = 0
KCO1 141439Z 01005KT 27/20 A3013 RMK A01 T02650198  RH  067%=      5-min Rain = 0
KCO1 141440Z 01005KT 27/20 A3013 RMK A01 T02670199  RH  066%=      5-min Rain = 0
KCO1 141441Z 02006KT 27/20 A3013 RMK A01 T02680197  RH  065%=      5-min Rain = 0
KCO1 141442Z 02006KT 27/20 A3013 RMK A01 T02680197  RH  065%=      5-min Rain = 0
KCO1 141443Z 03006KT 27/20 A3013 RMK A01 T02690195  RH  064%=      5-min Rain = 0
KCO1 141444Z 03006KT 27/19 A3013 RMK A01 T02690190  RH  062%=      5-min Rain = 0
KCO1 141445Z 03007KT 27/19 A3013 RMK A01 T02700192  RH  062%=      5-min Rain = 0
KCO1 141446Z 05007KT 27/19 A3013 RMK A01 T02700194  RH  063%=      5-min Rain = 0
KCO1 141447Z 04007KT 27/19 A3013 RMK A01 T02700190  RH  062%=      5-min Rain = 0
KCO1 141448Z 03007KT 27/19 A3013 RMK A01 T02700189  RH  061%=      5-min Rain = 0
KCO1 141449Z 03006KT 27/19 A3013 RMK A01 T02690191  RH  062%=      5-min Rain = 0
KCO1 141450Z 03006KT 27/19 A3013 RMK A01 T02690194  RH  063%=      5-min Rain = 0
KCO1 141451Z 03006KT 27/19 A3013 RMK A01 T02690193  RH  063%=      5-min Rain = 0
KCO1 141452Z 04006KT 27/20 A3013 RMK A01 T02710197  RH  064%=      5-min Rain = 0
KCO1 141453Z 02005KT 27/20 A3013 RMK A01 T02730197  RH  063%=      5-min Rain = 0
KCO1 141454Z 02007KT 27/20 A3013 RMK A01 T02730196  RH  063%=      5-min Rain = 0
KCO1 141455Z 03007KT 27/20 A3013 RMK A01 T02730197  RH  063%=      5-min Rain = 0
KCO1 141456Z 03006KT 27/19 A3013 RMK A01 T02720193  RH  062%=      5-min Rain = 0
KCO1 141457Z 05006KT 27/20 A3013 RMK A01 T02710195  RH  063%=      5-min Rain = 0
KCO1 141458Z 04005KT 27/20 A3013 RMK A01 T02720196  RH  063%=      5-min Rain = 0
KCO1 141459Z 04005KT 27/20 A3013 RMK A01 T02720197  RH  063%=      5-min Rain = 0
KCO1 141500Z 03005KT 27/20 A3013 RMK A01 T02730200  RH  064%=      5-min Rain = 0
KCO1 141501Z 05005KT 27/20 A3013 RMK A01 T02740200  RH  064%=      5-min Rain = 0
KCO1 141502Z 06006KT 27/20 A3013 RMK A01 T02740198  RH  063%=      5-min Rain = 0
KCO1 141503Z 04005KT 28/20 A3013 RMK A01 T02750199  RH  063%=      5-min Rain = 0
KCO1 141504Z 05005KT 28/20 A3013 RMK A01 T02750201  RH  064%=      5-min Rain = 0
KCO1 141505Z 06004KT 28/20 A3013 RMK A01 T02760203  RH  064%=      5-min Rain = 0
KCO1 141506Z 06005KT 28/20 A3013 RMK A01 T02770199  RH  063%=      5-min Rain = 0
KCO1 141507Z 06006KT 28/20 A3013 RMK A01 T02770201  RH  063%=      5-min Rain = 0
KCO1 141508Z 04006KT 28/20 A3013 RMK A01 T02780197  RH  061%=      5-min Rain = 0
KCO1 141509Z 04006KT 28/20 A3013 RMK A01 T02780195  RH  061%=      5-min Rain = 0
KCO1 141510Z 05005KT 28/20 A3013 RMK A01 T02760196  RH  061%=      5-min Rain = 0
KCO1 141511Z 04005KT 28/20 A3013 RMK A01 T02760196  RH  062%=      5-min Rain = 0
KCO1 141512Z 05004KT 28/20 A3013 RMK A01 T02760199  RH  063%=      5-min Rain = 0
KCO1 141513Z 06004KT 28/20 A3013 RMK A01 T02770201  RH  063%=      5-min Rain = 0
KCO1 141514Z 06005KT 28/20 A3013 RMK A01 T02790199  RH  062%=      5-min Rain = 0
KCO1 141515Z 07005KT 28/20 A3013 RMK A01 T02800198  RH  061%=      5-min Rain = 0
KCO1 141516Z 06004KT 28/20 A3013 RMK A01 T02800196  RH  060%=      5-min Rain = 0
KCO1 141517Z 06005KT 28/20 A3013 RMK A01 T02810198  RH  061%=      5-min Rain = 0
KCO1 141518Z 06005KT 28/20 A3013 RMK A01 T02820199  RH  061%=      5-min Rain = 0
KCO1 141519Z 07005KT 28/20 A3013 RMK A01 T02830198  RH  060%=      5-min Rain = 0
KCO1 141520Z 06005KT 28/20 A3014 RMK A01 T02830197  RH  060%=      5-min Rain = 0
KCO1 141521Z 05005KT 28/20 A3014 RMK A01 T02840198  RH  059%=      5-min Rain = 0
KCO1 141522Z 03005KT 28/20 A3014 RMK A01 T02840199  RH  060%=      5-min Rain = 0
KCO1 141523Z 03005KT 28/20 A3014 RMK A01 T02840199  RH  060%=      5-min Rain = 0
KCO1 141524Z 05006KT 29/20 A3014 RMK A01 T02850200  RH  060%=      5-min Rain = 0
KCO1 141525Z 07007KT 29/20 A3014 RMK A01 T02850200  RH  060%=      5-min Rain = 0
KCO1 141526Z 06005KT 29/20 A3014 RMK A01 T02860199  RH  059%=      5-min Rain = 0
KCO1 141527Z 06005KT 29/20 A3014 RMK A01 T02880203  RH  060%=      5-min Rain = 0
KCO1 141528Z 07005KT 29/20 A3014 RMK A01 T02900201  RH  059%=      5-min Rain = 0
KCO1 141529Z 07006KT 29/20 A3014 RMK A01 T02900200  RH  058%=      5-min Rain = 0
KCO1 141530Z 06004KT 29/20 A3014 RMK A01 T02910200  RH  058%=      5-min Rain = 0
KCO1 141531Z 06004KT 29/20 A3014 RMK A01 T02920201  RH  058%=      5-min Rain = 0
KCO1 141532Z 05005KT 29/20 A3014 RMK A01 T02920198  RH  057%=      5-min Rain = 0
KCO1 141533Z 06006KT 29/20 A3014 RMK A01 T02920200  RH  058%=      5-min Rain = 0
KCO1 141534Z 04005KT 29/20 A3014 RMK A01 T02910197  RH  057%=      5-min Rain = 0
KCO1 141535Z 06007KT 29/20 A3014 RMK A01 T02900197  RH  057%=      5-min Rain = 0
KCO1 141536Z 04007KT 29/20 A3014 RMK A01 T02890200  RH  058%=      5-min Rain = 0
KCO1 141537Z 03007KT 29/20 A3014 RMK A01 T02900202  RH  059%=      5-min Rain = 0
KCO1 141538Z 04008KT 29/20 A3014 RMK A01 T02900200  RH  058%=      5-min Rain = 0
KCO1 141539Z 05008KT 29/20 A3014 RMK A01 T02900200  RH  058%=      5-min Rain = 0
KCO1 141540Z 05008KT 29/20 A3014 RMK A01 T02910201  RH  058%=      5-min Rain = 0
KCO1 141541Z 06007KT 29/20 A3014 RMK A01 T02910200  RH  058%=      5-min Rain = 0
KCO1 141542Z 08006KT 29/20 A3014 RMK A01 T02920203  RH  058%=      5-min Rain = 0
KCO1 141543Z 07007KT 29/20 A3014 RMK A01 T02930199  RH  057%=      5-min Rain = 0
KCO1 141544Z 06007KT 29/20 A3015 RMK A01 T02930201  RH  058%=      5-min Rain = 0
KCO1 141545Z 05005KT 29/20 A3015 RMK A01 T02940203  RH  058%=      5-min Rain = 0
KCO1 141546Z 04007KT 30/20 A3015 RMK A01 T02950204  RH  058%=      5-min Rain = 0
KCO1 141547Z 03009KT 30/20 A3015 RMK A01 T02950204  RH  058%=      5-min Rain = 0
KCO1 141548Z 04009KT 29/20 A3015 RMK A01 T02930202  RH  058%=      5-min Rain = 0
KCO1 141549Z 04009KT 29/20 A3015 RMK A01 T02910200  RH  058%=      5-min Rain = 0
KCO1 141550Z 03008KT 29/20 A3015 RMK A01 T02910201  RH  058%=      5-min Rain = 0
KCO1 141551Z 03007KT 29/20 A3015 RMK A01 T02900201  RH  058%=      5-min Rain = 0
KCO1 141552Z 03008KT 29/20 A3015 RMK A01 T02900199  RH  058%=      5-min Rain = 0
KCO1 141553Z 03007KT 29/20 A3015 RMK A01 T02910200  RH  058%=      5-min Rain = 0
KCO1 141554Z 04007KT 29/20 A3015 RMK A01 T02910199  RH  058%=      5-min Rain = 0
KCO1 141555Z 04009KT 29/20 A3015 RMK A01 T02910197  RH  057%=      5-min Rain = 0
KCO1 141556Z 05007KT 29/20 A3015 RMK A01 T02910196  RH  057%=      5-min Rain = 0
KCO1 141557Z 04007KT 29/20 A3015 RMK A01 T02910195  RH  056%=      5-min Rain = 0
KCO1 141558Z 05006KT 29/20 A3015 RMK A01 T02910196  RH  057%=      5-min Rain = 0
KCO1 141559Z 05006KT 29/20 A3015 RMK A01 T02920199  RH  058%=      5-min Rain = 0
KCO1 141600Z 06006KT 29/20 A3015 RMK A01 T02930200  RH  057%=      5-min Rain = 0
KCO1 141601Z 06006KT 29/20 A3015 RMK A01 T02930201  RH  058%=      5-min Rain = 0
KCO1 141602Z 05007KT 29/20 A3015 RMK A01 T02940202  RH  058%=      5-min Rain = 0
KCO1 141603Z 05007KT 29/20 A3015 RMK A01 T02940200  RH  057%=      5-min Rain = 0
KCO1 141604Z 05006KT 29/20 A3016 RMK A01 T02940199  RH  057%=      5-min Rain = 0
KCO1 141605Z 05007KT 29/20 A3016 RMK A01 T02940200  RH  057%=      5-min Rain = 0
KCO1 141606Z 05008KT 29/20 A3016 RMK A01 T02940201  RH  057%=      5-min Rain = 0
KCO1 141607Z 05008KT 29/20 A3016 RMK A01 T02940200  RH  057%=      5-min Rain = 0
KCO1 141608Z 04009KT 29/20 A3016 RMK A01 T02940198  RH  056%=      5-min Rain = 0
KCO1 141609Z 04011KT 30/20 A3016 RMK A01 T02950199  RH  057%=      5-min Rain = 0
KCO1 141610Z 05010KT 30/20 A3016 RMK A01 T02950201  RH  057%=      5-min Rain = 0
KCO1 141611Z 05009KT 30/20 A3016 RMK A01 T02950201  RH  057%=      5-min Rain = 0
KCO1 141612Z 04009KT 29/20 A3016 RMK A01 T02940199  RH  056%=      5-min Rain = 0
KCO1 141613Z 05008KT 29/20 A3016 RMK A01 T02940201  RH  057%=      5-min Rain = 0
KCO1 141614Z 04008KT 30/20 A3016 RMK A01 T02950203  RH  058%=      5-min Rain = 0
KCO1 141615Z 03009KT 30/21 A3016 RMK A01 T02960205  RH  058%=      5-min Rain = 0
KCO1 141616Z 04010KT 30/20 A3016 RMK A01 T02960204  RH  058%=      5-min Rain = 0
KCO1 141617Z 04010KT 30/21 A3016 RMK A01 T02960205  RH  058%=      5-min Rain = 0
KCO1 141618Z 04009KT 30/21 A3016 RMK A01 T02960207  RH  059%=      5-min Rain = 0
KCO1 141619Z 06009KT 30/21 A3016 RMK A01 T02960207  RH  059%=      5-min Rain = 0
KCO1 141620Z 06010KT 30/21 A3016 RMK A01 T02970205  RH  058%=      5-min Rain = 0
KCO1 141621Z 06009KT 30/20 A3016 RMK A01 T02970204  RH  057%=      5-min Rain = 0
KCO1 141622Z 06007KT 30/21 A3016 RMK A01 T02970205  RH  058%=      5-min Rain = 0
KCO1 141623Z 06008KT 30/21 A3016 RMK A01 T02980205  RH  058%=      5-min Rain = 0
KCO1 141624Z 05009KT 30/20 A3016 RMK A01 T02980204  RH  057%=      5-min Rain = 0
KCO1 141625Z 05012KT 30/21 A3016 RMK A01 T02980207  RH  058%=      5-min Rain = 0
KCO1 141626Z 05012KT 30/20 A3016 RMK A01 T02980204  RH  057%=      5-min Rain = 0
KCO1 141627Z 04010KT 30/20 A3016 RMK A01 T02970204  RH  058%=      5-min Rain = 0
KCO1 141628Z 04012KT 30/21 A3016 RMK A01 T02960205  RH  058%=      5-min Rain = 0
KCO1 141629Z 03010KT 30/21 A3016 RMK A01 T02960205  RH  058%=      5-min Rain = 0
KCO1 141630Z 03012KT 30/21 A3016 RMK A01 T02960206  RH  058%=      5-min Rain = 0
KCO1 141631Z 04009KT 30/21 A3016 RMK A01 T02960205  RH  058%=      5-min Rain = 0
KCO1 141632Z 04010KT 30/21 A3016 RMK A01 T02970205  RH  058%=      5-min Rain = 0
KCO1 141633Z 03008KT 30/21 A3016 RMK A01 T02980205  RH  057%=      5-min Rain = 0
KCO1 141634Z 03008KT 30/21 A3016 RMK A01 T02980205  RH  058%=      5-min Rain = 0
KCO1 141635Z 03009KT 30/21 A3016 RMK A01 T02980208  RH  059%=      5-min Rain = 0
KCO1 141636Z 03012KT 30/21 A3016 RMK A01 T03000206  RH  057%=      5-min Rain = 0
KCO1 141637Z 04010KT 30/21 A3016 RMK A01 T03000205  RH  057%=      5-min Rain = 0
KCO1 141638Z 04009KT 30/20 A3016 RMK A01 T03000203  RH  056%=      5-min Rain = 0
KCO1 141639Z 03010KT 30/20 A3016 RMK A01 T02990203  RH  056%=      5-min Rain = 0
KCO1 141640Z 04009KT 30/21 A3016 RMK A01 T02990205  RH  057%=      5-min Rain = 0
KCO1 141641Z 03010KT 30/21 A3016 RMK A01 T03000205  RH  057%=      5-min Rain = 0
KCO1 141642Z 04008KT 30/20 A3016 RMK A01 T03000203  RH  056%=      5-min Rain = 0
KCO1 141643Z 04008KT 30/21 A3016 RMK A01 T03000205  RH  057%=      5-min Rain = 0
KCO1 141644Z 05010KT 30/20 A3016 RMK A01 T03000204  RH  056%=      5-min Rain = 0
KCO1 141645Z 06010KT 30/21 A3016 RMK A01 T03000205  RH  057%=      5-min Rain = 0
KCO1 141646Z 06008KT 30/21 A3016 RMK A01 T03000205  RH  057%=      5-min Rain = 0
KCO1 141647Z 07010KT 30/21 A3016 RMK A01 T03010207  RH  057%=      5-min Rain = 0
KCO1 141648Z 06010KT 30/21 A3016 RMK A01 T03010206  RH  057%=      5-min Rain = 0
KCO1 141649Z 05009KT 30/21 A3016 RMK A01 T03010207  RH  057%=      5-min Rain = 0
KCO1 141650Z 05010KT 30/21 A3016 RMK A01 T03010206  RH  057%=      5-min Rain = 0
KCO1 141651Z 07008KT 30/21 A3016 RMK A01 T03000206  RH  057%=      5-min Rain = 0
KCO1 141652Z 06007KT 30/21 A3016 RMK A01 T03000207  RH  057%=      5-min Rain = 0
KCO1 141653Z 06009KT 30/20 A3016 RMK A01 T03000204  RH  056%=      5-min Rain = 0
KCO1 141654Z 05010KT 30/21 A3016 RMK A01 T03010206  RH  057%=      5-min Rain = 0
KCO1 141655Z 06010KT 30/21 A3016 RMK A01 T03000206  RH  057%=      5-min Rain = 0
KCO1 141656Z 06008KT 30/21 A3016 RMK A01 T03010207  RH  057%=      5-min Rain = 0
KCO1 141657Z 06010KT 30/21 A3016 RMK A01 T03020205  RH  056%=      5-min Rain = 0
KCO1 141658Z 05009KT 30/21 A3016 RMK A01 T03020206  RH  057%=      5-min Rain = 0
KCO1 141659Z 05011KT 30/21 A3016 RMK A01 T03030208  RH  057%=      5-min Rain = 0
KCO1 141700Z 05010KT 30/21 A3016 RMK A01 T03030205  RH  056%=      5-min Rain = 0
KCO1 141701Z 05010KT 30/21 A3016 RMK A01 T03030207  RH  057%=      5-min Rain = 0
KCO1 141702Z 05013KT 30/21 A3016 RMK A01 T03030206  RH  056%=      5-min Rain = 0
KCO1 141703Z 05013KT 30/20 A3016 RMK A01 T03030203  RH  055%=      5-min Rain = 0
KCO1 141704Z 06011KT 30/20 A3016 RMK A01 T03020203  RH  055%=      5-min Rain = 0
KCO1 141705Z 06009KT 30/21 A3016 RMK A01 T03030205  RH  056%=      5-min Rain = 0
KCO1 141706Z 05011KT 30/21 A3016 RMK A01 T03040205  RH  056%=      5-min Rain = 0
KCO1 141707Z 04009KT 31/21 A3016 RMK A01 T03050205  RH  055%=      5-min Rain = 0
KCO1 141708Z 06009KT 31/21 A3016 RMK A01 T03060205  RH  055%=      5-min Rain = 0
KCO1 141709Z 06008KT 31/20 A3016 RMK A01 T03070203  RH  054%=      5-min Rain = 0
KCO1 141710Z 06007G12KT 31/21 A3016 RMK A01 T03090205  RH  054%=      5-min Rain = 0
KCO1 141711Z 05010KT 31/20 A3016 RMK A01 T03110202  RH  052%=      5-min Rain = 0
KCO1 141712Z 05011KT 31/20 A3016 RMK A01 T03120203  RH  053%=      5-min Rain = 0
KCO1 141713Z 04009KT 31/20 A3016 RMK A01 T03130202  RH  052%=      5-min Rain = 0
KCO1 141714Z 03008KT 31/20 A3016 RMK A01 T03130204  RH  052%=      5-min Rain = 0
KCO1 141715Z 04011KT 31/21 A3016 RMK A01 T03120206  RH  053%=      5-min Rain = 0
KCO1 141716Z 03010KT 31/20 A3016 RMK A01 T03110203  RH  052%=      5-min Rain = 0
KCO1 141717Z 02010KT 31/20 A3016 RMK A01 T03090202  RH  053%=      5-min Rain = 0
KCO1 141718Z 03011G16KT 31/20 A3016 RMK A01 T03070203  RH  054%=      5-min Rain = 0
KCO1 141719Z 03014KT 31/20 A3016 RMK A01 T03060203  RH  054%=      5-min Rain = 0
KCO1 141720Z 03013KT 30/20 A3016 RMK A01 T03030202  RH  055%=      5-min Rain = 0
KCO1 141721Z 04012KT 30/20 A3016 RMK A01 T03010203  RH  056%=      5-min Rain = 0
KCO1 141722Z 04009KT 30/21 A3016 RMK A01 T03010205  RH  056%=      5-min Rain = 0
KCO1 141723Z 05010KT 30/21 A3016 RMK A01 T03030207  RH  056%=      5-min Rain = 0
KCO1 141724Z 05010KT 31/21 A3016 RMK A01 T03050205  RH  055%=      5-min Rain = 0
KCO1 141725Z 06012KT 31/21 A3016 RMK A01 T03060205  RH  055%=      5-min Rain = 0
KCO1 141726Z 06013KT 31/20 A3016 RMK A01 T03090204  RH  054%=      5-min Rain = 0
KCO1 141727Z 07009KT 31/20 A3016 RMK A01 T03100203  RH  053%=      5-min Rain = 0
KCO1 141728Z 06009KT 31/20 A3016 RMK A01 T03110204  RH  053%=      5-min Rain = 0
KCO1 141729Z 07010KT 31/21 A3016 RMK A01 T03140206  RH  053%=      5-min Rain = 0
KCO1 141730Z 07008KT 32/21 A3016 RMK A01 T03150205  RH  052%=      5-min Rain = 0
KCO1 141731Z 05009KT 32/21 A3016 RMK A01 T03170209  RH  053%=      5-min Rain = 0
KCO1 141732Z 05011KT 32/21 A3016 RMK A01 T03200209  RH  052%=      5-min Rain = 0
KCO1 141733Z 05009KT 32/21 A3016 RMK A01 T03210206  RH  051%=      5-min Rain = 0
KCO1 141734Z 05010KT 32/21 A3016 RMK A01 T03200205  RH  051%=      5-min Rain = 0
KCO1 141735Z 05010KT 32/21 A3016 RMK A01 T03180205  RH  051%=      5-min Rain = 0
KCO1 141736Z 04012KT 32/20 A3016 RMK A01 T03180203  RH  051%=      5-min Rain = 0
KCO1 141737Z 04011KT 32/20 A3016 RMK A01 T03160202  RH  051%=      5-min Rain = 0
KCO1 141738Z 06009KT 32/20 A3016 RMK A01 T03150203  RH  051%=      5-min Rain = 0
KCO1 141739Z 05008KT 32/20 A3016 RMK A01 T03160202  RH  051%=      5-min Rain = 0
KCO1 141740Z 06011KT 32/20 A3016 RMK A01 T03160202  RH  051%=      5-min Rain = 0
KCO1 141741Z 03010KT 32/20 A3016 RMK A01 T03150201  RH  051%=      5-min Rain = 0
KCO1 141742Z 03007KT 31/20 A3016 RMK A01 T03140203  RH  052%=      5-min Rain = 0
KCO1 141743Z 03007KT 32/20 A3016 RMK A01 T03150201  RH  051%=      5-min Rain = 0
KCO1 141744Z 03008KT 31/20 A3016 RMK A01 T03140200  RH  051%=      5-min Rain = 0
KCO1 141745Z 03014KT 31/20 A3016 RMK A01 T03140202  RH  052%=      5-min Rain = 0
KCO1 141746Z 05010KT 32/20 A3016 RMK A01 T03150199  RH  050%=      5-min Rain = 0
KCO1 141747Z 05008KT 32/20 A3016 RMK A01 T03150201  RH  051%=      5-min Rain = 0
KCO1 141748Z 05009KT 32/20 A3016 RMK A01 T03160199  RH  050%=      5-min Rain = 0
KCO1 141749Z 04007KT 32/20 A3016 RMK A01 T03160204  RH  051%=      5-min Rain = 0
KCO1 141750Z 04007KT 32/20 A3016 RMK A01 T03180202  RH  050%=      5-min Rain = 0
KCO1 141751Z 04005KT 32/20 A3015 RMK A01 T03180201  RH  050%=      5-min Rain = 0
KCO1 141752Z 06006KT 32/20 A3015 RMK A01 T03190203  RH  050%=      5-min Rain = 0
KCO1 141753Z 05011KT 32/20 A3015 RMK A01 T03220204  RH  050%=      5-min Rain = 0
KCO1 141754Z 05011KT 32/20 A3015 RMK A01 T03240200  RH  048%=      5-min Rain = 0
KCO1 141755Z 04010KT 32/20 A3015 RMK A01 T03230199  RH  048%=      5-min Rain = 0
KCO1 141756Z 04008KT 32/20 A3015 RMK A01 T03200201  RH  049%=      5-min Rain = 0
KCO1 141757Z 03009KT 32/20 A3015 RMK A01 T03200197  RH  048%=      5-min Rain = 0
KCO1 141758Z 05012KT 32/20 A3015 RMK A01 T03180200  RH  050%=      5-min Rain = 0
KCO1 141759Z 05011KT 32/20 A3015 RMK A01 T03220202  RH  049%=      5-min Rain = 0
KCO1 141800Z 05010KT 32/20 A3015 RMK A01 T03230197  RH  047%=      5-min Rain = 0
KCO1 141801Z 07006KT 32/20 A3015 RMK A01 T03210200  RH  049%=      5-min Rain = 0
KCO1 141802Z 05004KT 32/20 A3015 RMK A01 T03220197  RH  048%=      5-min Rain = 0
KCO1 141803Z 05006KT 32/20 A3015 RMK A01 T03220198  RH  048%=      5-min Rain = 0
KCO1 141804Z 07006KT 32/20 A3015 RMK A01 T03230200  RH  048%=      5-min Rain = 0
KCO1 141805Z 06010KT 33/20 A3015 RMK A01 T03250201  RH  048%=      5-min Rain = 0
KCO1 141806Z 04009KT 33/20 A3015 RMK A01 T03270201  RH  048%=      5-min Rain = 0
KCO1 141807Z 07010KT 33/20 A3015 RMK A01 T03290203  RH  048%=      5-min Rain = 0
KCO1 141808Z 08009KT 33/20 A3015 RMK A01 T03290197  RH  046%=      5-min Rain = 0
KCO1 141809Z 08005KT 33/20 A3015 RMK A01 T03250197  RH  047%=      5-min Rain = 0
KCO1 141810Z 08006KT 32/20 A3015 RMK A01 T03230198  RH  048%=      5-min Rain = 0
KCO1 141811Z 07006KT 32/20 A3015 RMK A01 T03230198  RH  048%=      5-min Rain = 0
KCO1 141812Z 06009KT 33/20 A3015 RMK A01 T03250200  RH  048%=      5-min Rain = 0
KCO1 141813Z 05007KT 33/20 A3015 RMK A01 T03260198  RH  047%=      5-min Rain = 0
KCO1 141814Z 07006KT 33/20 A3015 RMK A01 T03270196  RH  046%=      5-min Rain = 0
KCO1 141815Z 07007KT 33/20 A3015 RMK A01 T03270197  RH  046%=      5-min Rain = 0
KCO1 141816Z 05008KT 33/20 A3015 RMK A01 T03270197  RH  046%=      5-min Rain = 0
KCO1 141817Z 04006KT 33/20 A3015 RMK A01 T03270195  RH  046%=      5-min Rain = 0
KCO1 141818Z 05008KT 33/20 A3015 RMK A01 T03270197  RH  046%=      5-min Rain = 0
KCO1 141819Z 05010KT 33/20 A3015 RMK A01 T03280198  RH  046%=      5-min Rain = 0
KCO1 141820Z 05006KT 33/20 A3014 RMK A01 T03310200  RH  046%=      5-min Rain = 0
KCO1 141821Z 05008KT 33/20 A3014 RMK A01 T03340203  RH  046%=      5-min Rain = 0
KCO1 141822Z 06009KT 34/20 A3015 RMK A01 T03370200  RH  045%=      5-min Rain = 0
KCO1 141823Z 07009KT 34/20 A3014 RMK A01 T03350199  RH  045%=      5-min Rain = 0
KCO1 141824Z 06013KT 34/20 A3015 RMK A01 T03350198  RH  045%=      5-min Rain = 0
KCO1 141825Z 06010KT 34/20 A3014 RMK A01 T03350198  RH  045%=      5-min Rain = 0
KCO1 141826Z 05009KT 34/20 A3014 RMK A01 T03370199  RH  044%=      5-min Rain = 0
KCO1 141827Z 04010KT 34/20 A3014 RMK A01 T03390198  RH  044%=      5-min Rain = 0
KCO1 141828Z 04009KT 34/20 A3014 RMK A01 T03410198  RH  043%=      5-min Rain = 0
KCO1 141829Z 05011KT 34/20 A3014 RMK A01 T03400197  RH  043%=      5-min Rain = 0
KCO1 141830Z 04009KT 34/19 A3014 RMK A01 T03390193  RH  042%=      5-min Rain = 0
KCO1 141831Z 07006KT 34/20 A3014 RMK A01 T03360195  RH  044%=      5-min Rain = 0
KCO1 141832Z 08008KT 34/19 A3014 RMK A01 T03360194  RH  043%=      5-min Rain = 0
KCO1 141833Z 08007KT 34/19 A3014 RMK A01 T03360192  RH  043%=      5-min Rain = 0
KCO1 141834Z 06009KT 33/20 A3014 RMK A01 T03340196  RH  044%=      5-min Rain = 0
KCO1 141835Z 03009KT 33/20 A3014 RMK A01 T03330195  RH  044%=      5-min Rain = 0
KCO1 141836Z 02008G13KT 33/19 A3014 RMK A01 T03320194  RH  044%=      5-min Rain = 0
KCO1 141837Z 03012KT 33/19 A3014 RMK A01 T03310193  RH  044%=      5-min Rain = 0
KCO1 141838Z 03009KT 33/20 A3014 RMK A01 T03330196  RH  045%=      5-min Rain = 0
KCO1 141839Z 06010KT 34/20 A3014 RMK A01 T03350195  RH  044%=      5-min Rain = 0
KCO1 141840Z 08006KT 34/20 A3014 RMK A01 T03360195  RH  043%=      5-min Rain = 0
KCO1 141841Z 09006KT 34/20 A3013 RMK A01 T03360197  RH  044%=      5-min Rain = 0
KCO1 141842Z 06008KT 34/20 A3013 RMK A01 T03380198  RH  044%=      5-min Rain = 0
KCO1 141843Z 05013KT 34/20 A3014 RMK A01 T03380197  RH  043%=      5-min Rain = 0
KCO1 141844Z 08010KT 34/20 A3014 RMK A01 T03390198  RH  044%=      5-min Rain = 0
KCO1 141845Z 08011KT 34/20 A3014 RMK A01 T03400197  RH  043%=      5-min Rain = 0
KCO1 141846Z 08010KT 34/20 A3014 RMK A01 T03400196  RH  043%=      5-min Rain = 0
KCO1 141847Z 09009KT 34/20 A3013 RMK A01 T03390197  RH  043%=      5-min Rain = 0
KCO1 141848Z 08009KT 34/20 A3013 RMK A01 T03380196  RH  043%=      5-min Rain = 0
KCO1 141849Z 07009KT 34/19 A3013 RMK A01 T03350192  RH  043%=      5-min Rain = 0
KCO1 141850Z 08006KT 34/20 A3013 RMK A01 T03350195  RH  044%=      5-min Rain = 0
KCO1 141851Z 06010KT 34/20 A3013 RMK A01 T03390197  RH  043%=      5-min Rain = 0
KCO1 141852Z 07008KT 34/19 A3013 RMK A01 T03400194  RH  042%=      5-min Rain = 0
KCO1 141853Z 05008KT 34/19 A3013 RMK A01 T03400194  RH  042%=      5-min Rain = 0
KCO1 141854Z 06006KT 34/19 A3013 RMK A01 T03370191  RH  042%=      5-min Rain = 0
KCO1 141855Z 05008KT 34/19 A3013 RMK A01 T03360193  RH  043%=      5-min Rain = 0
KCO1 141856Z 06005KT 34/19 A3013 RMK A01 T03350193  RH  043%=      5-min Rain = 0
KCO1 141857Z 07006KT 33/19 A3012 RMK A01 T03330194  RH  044%=      5-min Rain = 0
KCO1 141858Z 08010KT 33/20 A3012 RMK A01 T03340195  RH  044%=      5-min Rain = 0
KCO1 141859Z 08010KT 34/20 A3012 RMK A01 T03350195  RH  044%=      5-min Rain = 0
KCO1 141900Z 06006KT 33/20 A3012 RMK A01 T03340196  RH  044%=      5-min Rain = 0
KCO1 141901Z 04009KT 34/20 A3012 RMK A01 T03350197  RH  044%=      5-min Rain = 0
KCO1 141902Z 02009KT 34/20 A3012 RMK A01 T03360196  RH  044%=      5-min Rain = 0
KCO1 141903Z 06007KT 34/20 A3012 RMK A01 T03360196  RH  044%=      5-min Rain = 0
KCO1 141904Z 06009KT 34/20 A3012 RMK A01 T03370195  RH  043%=      5-min Rain = 0
KCO1 141905Z 06005KT 34/19 A3012 RMK A01 T03380193  RH  043%=      5-min Rain = 0
KCO1 141906Z 09004KT 34/19 A3012 RMK A01 T03370193  RH  043%=      5-min Rain = 0
KCO1 141907Z 08006KT 34/20 A3012 RMK A01 T03370195  RH  043%=      5-min Rain = 0
KCO1 141908Z 05005KT 34/20 A3012 RMK A01 T03390196  RH  043%=      5-min Rain = 0
KCO1 141909Z 08007KT 34/19 A3012 RMK A01 T03400194  RH  042%=      5-min Rain = 0
KCO1 141910Z 09009KT 34/20 A3012 RMK A01 T03390195  RH  043%=      5-min Rain = 0
KCO1 141911Z 11007KT 34/20 A3011 RMK A01 T03380195  RH  043%=      5-min Rain = 0
KCO1 141912Z 11006KT 34/19 A3011 RMK A01 T03370194  RH  043%=      5-min Rain = 0
KCO1 141913Z 11009G16KT 34/20 A3011 RMK A01 T03360199  RH  044%=      5-min Rain = 0
KCO1 141914Z 02009G14KT 34/20 A3011 RMK A01 T03410198  RH  043%=      5-min Rain = 0
KCO1 141915Z 04011KT 34/20 A3011 RMK A01 T03420195  RH  042%=      5-min Rain = 0
KCO1 141916Z 04010KT 34/19 A3011 RMK A01 T03420193  RH  042%=      5-min Rain = 0
KCO1 141917Z 04008KT 34/19 A3011 RMK A01 T03390192  RH  042%=      5-min Rain = 0
KCO1 141918Z 06007KT 34/20 A3011 RMK A01 T03380197  RH  044%=      5-min Rain = 0
KCO1 141919Z 06005KT 34/19 A3011 RMK A01 T03410191  RH  041%=      5-min Rain = 0
KCO1 141920Z 08005KT 34/19 A3011 RMK A01 T03400190  RH  041%=      5-min Rain = 0
KCO1 141921Z 04007G12KT 34/19 A3011 RMK A01 T03390194  RH  043%=      5-min Rain = 0
KCO1 141922Z 02012KT 34/20 A3011 RMK A01 T03410195  RH  042%=      5-min Rain = 0
KCO1 141923Z 03010KT 34/20 A3011 RMK A01 T03430195  RH  042%=      5-min Rain = 0
KCO1 141924Z 02010KT 35/19 A3011 RMK A01 T03450194  RH  041%=      5-min Rain = 0
KCO1 141925Z 04009KT 34/19 A3011 RMK A01 T03440192  RH  041%=      5-min Rain = 0
KCO1 141926Z 04006KT 34/20 A3011 RMK A01 T03430195  RH  042%=      5-min Rain = 0
KCO1 141927Z 01007KT 35/19 A301 RMK A01 T03450192  RH  041%=      5-min Rain = 0
KCO1 141928Z 01004KT 34/19 A301 RMK A01 T03410188  RH  041%=      5-min Rain = 0
KCO1 141929Z 35005KT 34/19 A301 RMK A01 T03380189  RH  041%=      5-min Rain = 0
KCO1 141930Z 32003KT 34/19 A301 RMK A01 T03360186  RH  041%=      5-min Rain = 0
KCO1 141931Z 34004KT 33/19 A301 RMK A01 T03340189  RH  043%=      5-min Rain = 0
KCO1 141932Z 02004KT 33/19 A301 RMK A01 T03340190  RH  043%=      5-min Rain = 0
KCO1 141933Z 02004KT 34/19 A301 RMK A01 T03360193  RH  043%=      5-min Rain = 0
KCO1 141934Z 03008KT 34/20 A301 RMK A01 T03420196  RH  042%=      5-min Rain = 0
KCO1 141935Z 02008KT 34/19 A301 RMK A01 T03430191  RH  041%=      5-min Rain = 0
KCO1 141936Z 02008KT 34/19 A301 RMK A01 T03410191  RH  041%=      5-min Rain = 0
KCO1 141937Z 03008KT 34/19 A301 RMK A01 T03410189  RH  041%=      5-min Rain = 0
KCO1 141938Z 04008KT 34/19 A301 RMK A01 T03410188  RH  041%=      5-min Rain = 0
KCO1 141939Z 05005KT 34/19 A3009 RMK A01 T03400187  RH  041%=      5-min Rain = 0
KCO1 141940Z 05004KT 34/19 A3009 RMK A01 T03400193  RH  042%=      5-min Rain = 0
KCO1 141941Z 08002KT 34/19 A3009 RMK A01 T03430190  RH  041%=      5-min Rain = 0
KCO1 141942Z 13001KT 34/19 A3009 RMK A01 T03440190  RH  040%=      5-min Rain = 0
KCO1 141943Z 14001KT 35/19 A3009 RMK A01 T03450188  RH  040%=      5-min Rain = 0
KCO1 141944Z 09005KT 35/19 A3009 RMK A01 T03460192  RH  040%=      5-min Rain = 0
KCO1 141945Z 08009KT 35/20 A3009 RMK A01 T03470195  RH  041%=      5-min Rain = 0
KCO1 141946Z 07006KT 35/19 A3009 RMK A01 T03470193  RH  040%=      5-min Rain = 0
KCO1 141947Z 07009KT 34/19 A3009 RMK A01 T03440193  RH  041%=      5-min Rain = 0
KCO1 141948Z 07009KT 34/19 A3009 RMK A01 T03430193  RH  041%=      5-min Rain = 0
KCO1 141949Z 08007KT 34/19 A3009 RMK A01 T03430192  RH  041%=      5-min Rain = 0
KCO1 141950Z 08006KT 34/19 A3009 RMK A01 T03430190  RH  041%=      5-min Rain = 0
KCO1 141951Z 09004KT 34/19 A3008 RMK A01 T03410190  RH  041%=      5-min Rain = 0
KCO1 141952Z 08009KT 34/19 A3008 RMK A01 T03410191  RH  041%=      5-min Rain = 0
KCO1 141953Z 10007KT 34/19 A3008 RMK A01 T03410191  RH  041%=      5-min Rain = 0
KCO1 141954Z 07005KT 34/19 A3008 RMK A01 T03430194  RH  042%=      5-min Rain = 0
KCO1 141955Z 08007KT 35/19 A3008 RMK A01 T03460193  RH  041%=      5-min Rain = 0
KCO1 141956Z 07005KT 35/19 A3008 RMK A01 T03470193  RH  040%=      5-min Rain = 0
KCO1 141957Z 08003KT 35/19 A3008 RMK A01 T03480194  RH  041%=      5-min Rain = 0
KCO1 141958Z 03005KT 35/19 A3008 RMK A01 T03480190  RH  039%=      5-min Rain = 0
KCO1 141959Z 05005KT 35/19 A3008 RMK A01 T03480191  RH  040%=      5-min Rain = 0
KCO1 142000Z 01005KT 35/19 A3008 RMK A01 T03490192  RH  040%=      5-min Rain = 0
KCO1 142001Z 35005KT 35/19 A3008 RMK A01 T03500191  RH  039%=      5-min Rain = 0
KCO1 142002Z 34006KT 35/19 A3008 RMK A01 T03490190  RH  039%=      5-min Rain = 0
KCO1 142003Z 34003KT 35/19 A3008 RMK A01 T03470192  RH  040%=      5-min Rain = 0
KCO1 142004Z 00007KT 35/19 A3007 RMK A01 T03460190  RH  040%=      5-min Rain = 0
KCO1 142005Z 03008KT 34/19 A3008 RMK A01 T03440189  RH  040%=      5-min Rain = 0
KCO1 142006Z 01006KT 34/19 A3007 RMK A01 T03430188  RH  040%=      5-min Rain = 0
KCO1 142007Z 02005KT 34/19 A3007 RMK A01 T03420188  RH  040%=      5-min Rain = 0
KCO1 142008Z 03010KT 34/19 A3007 RMK A01 T03440192  RH  041%=      5-min Rain = 0
KCO1 142009Z 03008KT 35/19 A3007 RMK A01 T03470188  RH  039%=      5-min Rain = 0
KCO1 142010Z 35004KT 35/19 A3007 RMK A01 T03450186  RH  039%=      5-min Rain = 0
KCO1 142011Z 35006KT 34/19 A3007 RMK A01 T03430189  RH  040%=      5-min Rain = 0
KCO1 142012Z 01007KT 35/19 A3007 RMK A01 T03450188  RH  040%=      5-min Rain = 0
KCO1 142013Z 00006KT 34/19 A3007 RMK A01 T03440187  RH  040%=      5-min Rain = 0
KCO1 142014Z 04006KT 35/19 A3007 RMK A01 T03470190  RH  040%=      5-min Rain = 0
KCO1 142015Z 03006KT 35/19 A3007 RMK A01 T03480186  RH  038%=      5-min Rain = 0
KCO1 142016Z 08004KT 35/19 A3007 RMK A01 T03460188  RH  039%=      5-min Rain = 0
KCO1 142017Z 07006KT 35/19 A3007 RMK A01 T03470189  RH  039%=      5-min Rain = 0
KCO1 142018Z 06007KT 35/19 A3007 RMK A01 T03500186  RH  038%=      5-min Rain = 0
KCO1 142019Z 09003KT 35/18 A3007 RMK A01 T03470183  RH  038%=      5-min Rain = 0
KCO1 142020Z 05005KT 35/19 A3007 RMK A01 T03450185  RH  039%=      5-min Rain = 0
KCO1 142021Z 04005KT 35/18 A3007 RMK A01 T03450183  RH  038%=      5-min Rain = 0
KCO1 142022Z 02004KT 34/18 A3007 RMK A01 T03430180  RH  038%=      5-min Rain = 0
KCO1 142023Z 01002KT 34/18 A3007 RMK A01 T03390178  RH  038%=      5-min Rain = 0
KCO1 142024Z 05005KT 34/18 A3007 RMK A01 T03380182  RH  040%=      5-min Rain = 0
KCO1 142025Z 03002KT 34/18 A3007 RMK A01 T03370181  RH  040%=      5-min Rain = 0
KCO1 142026Z 03001KT 34/18 A3007 RMK A01 T03370180  RH  040%=      5-min Rain = 0
KCO1 142027Z 10004KT 34/18 A3007 RMK A01 T03360183  RH  040%=      5-min Rain = 0
KCO1 142028Z 11006KT 34/19 A3007 RMK A01 T03360186  RH  041%=      5-min Rain = 0
KCO1 142029Z 11005KT 34/19 A3006 RMK A01 T03370187  RH  041%=      5-min Rain = 0
KCO1 142030Z 11003KT 34/19 A3006 RMK A01 T03380187  RH  041%=      5-min Rain = 0
KCO1 142031Z 14004KT 34/19 A3006 RMK A01 T03390187  RH  041%=      5-min Rain = 0
KCO1 142032Z 12005KT 34/19 A3006 RMK A01 T03390186  RH  040%=      5-min Rain = 0
KCO1 142033Z 09005KT 34/19 A3006 RMK A01 T03400188  RH  041%=      5-min Rain = 0
KCO1 142034Z 08003KT 34/19 A3006 RMK A01 T03400188  RH  041%=      5-min Rain = 0
KCO1 142035Z 07004KT 34/19 A3006 RMK A01 T03410188  RH  041%=      5-min Rain = 0
KCO1 142036Z 02005KT 34/19 A3006 RMK A01 T03410186  RH  040%=      5-min Rain = 0
KCO1 142037Z 33005KT 34/19 A3007 RMK A01 T03410185  RH  040%=      5-min Rain = 0
KCO1 142038Z 33006KT 34/19 A3006 RMK A01 T03410185  RH  040%=      5-min Rain = 0
KCO1 142039Z 01006KT 34/19 A3007 RMK A01 T03400187  RH  040%=      5-min Rain = 0
KCO1 142040Z 02005KT 34/18 A3007 RMK A01 T03400184  RH  040%=      5-min Rain = 0
KCO1 142041Z 02003KT 34/19 A3007 RMK A01 T03390186  RH  040%=      5-min Rain = 0
KCO1 142042Z 03004KT 34/19 A3007 RMK A01 T03410188  RH  041%=      5-min Rain = 0
KCO1 142043Z 04007KT 34/19 A3007 RMK A01 T03420186  RH  040%=      5-min Rain = 0
KCO1 142044Z 04008KT 34/19 A3007 RMK A01 T03420185  RH  040%=      5-min Rain = 0
KCO1 142045Z 04005KT 34/19 A3007 RMK A01 T03420186  RH  040%=      5-min Rain = 0
KCO1 142046Z 03007KT 34/18 A3007 RMK A01 T03420184  RH  039%=      5-min Rain = 0
KCO1 142047Z 06006KT 34/19 A3007 RMK A01 T03430185  RH  039%=      5-min Rain = 0
KCO1 142048Z 06005KT 34/18 A3007 RMK A01 T03430184  RH  039%=      5-min Rain = 0
KCO1 142049Z 05004KT 34/18 A3007 RMK A01 T03420184  RH  039%=      5-min Rain = 0
KCO1 142050Z 04005KT 34/19 A3007 RMK A01 T03420185  RH  039%=      5-min Rain = 0
KCO1 142051Z 04004KT 34/18 A3007 RMK A01 T03430183  RH  039%=      5-min Rain = 0
KCO1 142052Z 05003KT 34/18 A3007 RMK A01 T03420184  RH  039%=      5-min Rain = 0
KCO1 142053Z 04003KT 34/18 A3007 RMK A01 T03410182  RH  039%=      5-min Rain = 0
KCO1 142054Z 03002KT 34/18 A3007 RMK A01 T03410184  RH  040%=      5-min Rain = 0
KCO1 142055Z 07004KT 34/19 A3007 RMK A01 T03420186  RH  040%=      5-min Rain = 0
KCO1 142056Z 05002KT 34/18 A3007 RMK A01 T03430184  RH  039%=      5-min Rain = 0
KCO1 142057Z 03003KT 34/18 A3007 RMK A01 T03440182  RH  038%=      5-min Rain = 0
KCO1 142058Z 03002KT 34/18 A3007 RMK A01 T03440181  RH  038%=      5-min Rain = 0
KCO1 142059Z 00001KT 34/18 A3007 RMK A01 T03420180  RH  038%=      5-min Rain = 0
KCO1 142100Z 08004KT 34/18 A3007 RMK A01 T03420183  RH  039%=      5-min Rain = 0
KCO1 142101Z 07007KT 34/19 A3007 RMK A01 T03430185  RH  039%=      5-min Rain = 0
KCO1 142102Z 08007KT 35/18 A3007 RMK A01 T03450184  RH  039%=      5-min Rain = 0
KCO1 142103Z 06006KT 35/19 A3007 RMK A01 T03450186  RH  039%=      5-min Rain = 0
KCO1 142104Z 05005KT 35/19 A3007 RMK A01 T03460185  RH  039%=      5-min Rain = 0
KCO1 142105Z 06008KT 35/19 A3007 RMK A01 T03470186  RH  039%=      5-min Rain = 0
KCO1 142106Z 03004KT 35/18 A3007 RMK A01 T03470182  RH  038%=      5-min Rain = 0
KCO1 142107Z 04005KT 35/18 A3007 RMK A01 T03460183  RH  038%=      5-min Rain = 0
KCO1 142108Z 02004KT 34/18 A3007 RMK A01 T03440181  RH  038%=      5-min Rain = 0
KCO1 142109Z 02003KT 34/18 A3007 RMK A01 T03440182  RH  038%=      5-min Rain = 0
KCO1 142110Z 05002KT 34/18 A3007 RMK A01 T03440182  RH  038%=      5-min Rain = 0
KCO1 142111Z 05001KT 34/18 A3006 RMK A01 T03440181  RH  038%=      5-min Rain = 0
KCO1 142112Z 07003KT 34/18 A3006 RMK A01 T03440183  RH  039%=      5-min Rain = 0
KCO1 142113Z 08006KT 35/19 A3006 RMK A01 T03470191  RH  040%=      5-min Rain = 0
KCO1 142114Z 07006KT 35/19 A3006 RMK A01 T03500185  RH  038%=      5-min Rain = 0
KCO1 142115Z 09006KT 35/19 A3006 RMK A01 T03500185  RH  038%=      5-min Rain = 0
KCO1 142116Z 09005KT 35/18 A3006 RMK A01 T03500184  RH  038%=      5-min Rain = 0
KCO1 142117Z 07004KT 35/19 A3006 RMK A01 T03490185  RH  038%=      5-min Rain = 0
KCO1 142118Z 07003KT 35/19 A3006 RMK A01 T03490187  RH  039%=      5-min Rain = 0
KCO1 142119Z 06004KT 35/19 A3006 RMK A01 T03520187  RH  038%=      5-min Rain = 0
KCO1 142120Z 07004KT 35/18 A3006 RMK A01 T03520184  RH  037%=      5-min Rain = 0
KCO1 142121Z 07007KT 35/19 A3006 RMK A01 T03510185  RH  038%=      5-min Rain = 0
KCO1 142122Z 07005KT 35/18 A3006 RMK A01 T03510184  RH  037%=      5-min Rain = 0
KCO1 142123Z 04003KT 35/18 A3006 RMK A01 T03500183  RH  037%=      5-min Rain = 0
KCO1 142124Z 36003KT 35/18 A3006 RMK A01 T03490183  RH  038%=      5-min Rain = 0
KCO1 142125Z 01002KT 35/18 A3006 RMK A01 T03490181  RH  037%=      5-min Rain = 0
KCO1 142126Z 10005KT 35/19 A3006 RMK A01 T03490186  RH  038%=      5-min Rain = 0
KCO1 142127Z 10006KT 35/18 A3006 RMK A01 T03490184  RH  038%=      5-min Rain = 0
KCO1 142128Z 12005KT 35/18 A3005 RMK A01 T03480182  RH  038%=      5-min Rain = 0
KCO1 142129Z 13003KT 35/18 A3005 RMK A01 T03460181  RH  038%=      5-min Rain = 0
KCO1 142130Z 13004KT 35/18 A3005 RMK A01 T03450183  RH  038%=      5-min Rain = 0
KCO1 142131Z 11004KT 35/18 A3005 RMK A01 T03450184  RH  039%=      5-min Rain = 0
KCO1 142132Z 11004KT 35/18 A3005 RMK A01 T03460183  RH  038%=      5-min Rain = 0
KCO1 142133Z 12005KT 35/19 A3005 RMK A01 T03470187  RH  039%=      5-min Rain = 0
KCO1 142134Z 08003KT 35/19 A3005 RMK A01 T03490185  RH  038%=      5-min Rain = 0
KCO1 142135Z 08005KT 35/19 A3005 RMK A01 T03500187  RH  038%=      5-min Rain = 0
KCO1 142136Z 07003KT 35/18 A3005 RMK A01 T03500181  RH  037%=      5-min Rain = 0
KCO1 142137Z 06006KT 35/18 A3005 RMK A01 T03490184  RH  038%=      5-min Rain = 0
KCO1 142138Z 08007KT 35/18 A3005 RMK A01 T03500183  RH  037%=      5-min Rain = 0
KCO1 142139Z 07004KT 35/18 A3005 RMK A01 T03500183  RH  037%=      5-min Rain = 0
KCO1 142140Z 05003KT 35/18 A3005 RMK A01 T03500182  RH  037%=      5-min Rain = 0
KCO1 142141Z 08005KT 35/18 A3005 RMK A01 T03500184  RH  038%=      5-min Rain = 0
KCO1 142142Z 06006KT 35/19 A3005 RMK A01 T03500186  RH  038%=      5-min Rain = 0
KCO1 142143Z 07006KT 35/18 A3005 RMK A01 T03510183  RH  037%=      5-min Rain = 0
KCO1 142144Z 07008KT 35/18 A3005 RMK A01 T03510184  RH  037%=      5-min Rain = 0
KCO1 142145Z 07008KT 35/18 A3005 RMK A01 T03510183  RH  037%=      5-min Rain = 0
KCO1 142146Z 07008KT 35/18 A3005 RMK A01 T03490183  RH  037%=      5-min Rain = 0
KCO1 142147Z 07006KT 35/19 A3005 RMK A01 T03490185  RH  038%=      5-min Rain = 0
KCO1 142148Z 08006KT 35/18 A3005 RMK A01 T03480183  RH  038%=      5-min Rain = 0
KCO1 142149Z 08004KT 35/18 A3005 RMK A01 T03480182  RH  038%=      5-min Rain = 0
KCO1 142150Z 09003KT 35/18 A3005 RMK A01 T03480183  RH  038%=      5-min Rain = 0
KCO1 142151Z 09002KT 35/18 A3004 RMK A01 T03480181  RH  037%=      5-min Rain = 0
KCO1 142152Z 09003KT 35/18 A3004 RMK A01 T03480183  RH  038%=      5-min Rain = 0
KCO1 142153Z 11004KT 35/18 A3004 RMK A01 T03480183  RH  038%=      5-min Rain = 0
KCO1 142154Z 09004KT 35/18 A3004 RMK A01 T03470182  RH  038%=      5-min Rain = 0
KCO1 142155Z 08002KT 35/18 A3004 RMK A01 T03460181  RH  038%=      5-min Rain = 0
KCO1 142156Z 10002KT 35/18 A3004 RMK A01 T03460181  RH  038%=      5-min Rain = 0
KCO1 142157Z 09002KT 35/18 A3004 RMK A01 T03460180  RH  037%=      5-min Rain = 0
KCO1 142158Z 09002KT 35/18 A3004 RMK A01 T03470181  RH  037%=      5-min Rain = 0
KCO1 142159Z 05002KT 35/18 A3004 RMK A01 T03470181  RH  038%=      5-min Rain = 0
KCO1 142200Z 06004KT 35/18 A3004 RMK A01 T03470183  RH  038%=      5-min Rain = 0
KCO1 142201Z 05004KT 35/19 A3004 RMK A01 T03480186  RH  038%=      5-min Rain = 0
KCO1 142202Z 04005KT 35/18 A3004 RMK A01 T03490182  RH  037%=      5-min Rain = 0
KCO1 142203Z 06006KT 35/18 A3004 RMK A01 T03490183  RH  038%=      5-min Rain = 0
KCO1 142204Z 07008KT 35/19 A3004 RMK A01 T03490186  RH  038%=      5-min Rain = 0
KCO1 142205Z 07007KT 35/19 A3004 RMK A01 T03500185  RH  038%=      5-min Rain = 0
KCO1 142206Z 07006KT 35/19 A3004 RMK A01 T03490185  RH  038%=      5-min Rain = 0
KCO1 142207Z 06007KT 35/18 A3003 RMK A01 T03500184  RH  037%=      5-min Rain = 0
KCO1 142208Z 07006KT 35/18 A3003 RMK A01 T03500182  RH  037%=      5-min Rain = 0
KCO1 142209Z 08006KT 35/18 A3003 RMK A01 T03490183  RH  038%=      5-min Rain = 0
KCO1 142210Z 07005KT 35/18 A3003 RMK A01 T03490182  RH  037%=      5-min Rain = 0
KCO1 142211Z 07005KT 35/18 A3003 RMK A01 T03480181  RH  037%=      5-min Rain = 0
KCO1 142212Z 09002KT 35/18 A3003 RMK A01 T03470180  RH  037%=      5-min Rain = 0
KCO1 142213Z 10004KT 35/18 A3003 RMK A01 T03470182  RH  038%=      5-min Rain = 0
KCO1 142214Z 08004KT 35/18 A3003 RMK A01 T03470183  RH  038%=      5-min Rain = 0
KCO1 142215Z 07004KT 35/18 A3003 RMK A01 T03470183  RH  038%=      5-min Rain = 0
KCO1 142216Z 06005KT 35/19 A3003 RMK A01 T03480185  RH  038%=      5-min Rain = 0
KCO1 142217Z 06004KT 35/18 A3003 RMK A01 T03490183  RH  037%=      5-min Rain = 0
KCO1 142218Z 09004KT 35/18 A3003 RMK A01 T03490183  RH  038%=      5-min Rain = 0
KCO1 142219Z 09004KT 35/19 A3003 RMK A01 T03490186  RH  038%=      5-min Rain = 0
KCO1 142220Z 07004KT 35/19 A3002 RMK A01 T03500186  RH  038%=      5-min Rain = 0
KCO1 142221Z 06001KT 35/18 A3002 RMK A01 T03500182  RH  037%=      5-min Rain = 0
KCO1 142222Z 03001KT 35/18 A3002 RMK A01 T03510183  RH  037%=      5-min Rain = 0
KCO1 142223Z 07003KT 35/18 A3002 RMK A01 T03510183  RH  037%=      5-min Rain = 0
KCO1 142224Z 06006KT 35/18 A3002 RMK A01 T03510184  RH  037%=      5-min Rain = 0
KCO1 142225Z 07006KT 35/18 A3002 RMK A01 T03510182  RH  037%=      5-min Rain = 0
KCO1 142226Z 08005KT 35/18 A3002 RMK A01 T03510181  RH  037%=      5-min Rain = 0
KCO1 142227Z 08004KT 35/18 A3002 RMK A01 T03510181  RH  037%=      5-min Rain = 0
KCO1 142228Z 09004KT 35/18 A3002 RMK A01 T03510182  RH  037%=      5-min Rain = 0
KCO1 142229Z 09004KT 35/18 A3002 RMK A01 T03510181  RH  037%=      5-min Rain = 0
KCO1 142230Z 05003KT 35/18 A3002 RMK A01 T03510181  RH  037%=      5-min Rain = 0
KCO1 142231Z 08004KT 35/18 A3002 RMK A01 T03510182  RH  037%=      5-min Rain = 0
KCO1 142232Z 07006KT 35/18 A3002 RMK A01 T03510182  RH  037%=      5-min Rain = 0
KCO1 142233Z 06005KT 35/18 A3002 RMK A01 T03520182  RH  037%=      5-min Rain = 0
KCO1 142234Z 07005KT 35/18 A3002 RMK A01 T03520180  RH  036%=      5-min Rain = 0
KCO1 142235Z 06006KT 35/18 A3002 RMK A01 T03520179  RH  036%=      5-min Rain = 0
KCO1 142236Z 06007KT 35/18 A3002 RMK A01 T03520181  RH  036%=      5-min Rain = 0
KCO1 142237Z 06007KT 35/18 A3002 RMK A01 T03520180  RH  036%=      5-min Rain = 0
KCO1 142238Z 05006KT 35/18 A3002 RMK A01 T03530179  RH  036%=      5-min Rain = 0
KCO1 142239Z 09005KT 35/18 A3002 RMK A01 T03530181  RH  036%=      5-min Rain = 0
KCO1 142240Z 09007KT 35/18 A3001 RMK A01 T03540184  RH  037%=      5-min Rain = 0
KCO1 142241Z 08008KT 35/18 A3001 RMK A01 T03530181  RH  036%=      5-min Rain = 0
KCO1 142242Z 07008KT 35/18 A3001 RMK A01 T03520182  RH  037%=      5-min Rain = 0
KCO1 142243Z 06007KT 35/18 A3001 RMK A01 T03500180  RH  037%=      5-min Rain = 0
KCO1 142244Z 08007KT 35/18 A3001 RMK A01 T03500182  RH  037%=      5-min Rain = 0
KCO1 142245Z 08007KT 35/18 A3001 RMK A01 T03500179  RH  036%=      5-min Rain = 0
KCO1 142246Z 07007G14KT 35/18 A3001 RMK A01 T03500181  RH  037%=      5-min Rain = 0
KCO1 142247Z 10013KT 35/19 A3002 RMK A01 T03500185  RH  038%=      5-min Rain = 0
KCO1 142248Z 12019KT 35/18 A3002 RMK A01 T03470183  RH  038%=      5-min Rain = 0
KCO1 142249Z 14016KT 34/18 A3002 RMK A01 T03410181  RH  039%=      5-min Rain = 0
KCO1 142250Z 14015KT 34/18 A3002 RMK A01 T03380181  RH  040%=      5-min Rain = 0
KCO1 142251Z 13015KT 34/18 A3002 RMK A01 T03360182  RH  040%=      5-min Rain = 0
KCO1 142252Z 13014KT 34/19 A3002 RMK A01 T03350185  RH  041%=      5-min Rain = 0
KCO1 142253Z 13014KT 34/19 A3002 RMK A01 T03350186  RH  041%=      5-min Rain = 0
KCO1 142254Z 14017KT 33/18 A3002 RMK A01 T03340184  RH  041%=      5-min Rain = 0
KCO1 142255Z 13015KT 33/18 A3002 RMK A01 T03330182  RH  041%=      5-min Rain = 0
KCO1 142256Z 13016KT 33/18 A3002 RMK A01 T03320182  RH  041%=      5-min Rain = 0
KCO1 142257Z 14017G22KT 33/18 A3002 RMK A01 T03320179  RH  040%=      5-min Rain = 0
KCO1 142258Z 14014KT 33/18 A3002 RMK A01 T03310180  RH  041%=      5-min Rain = 0
KCO1 142259Z 14016KT 33/18 A3002 RMK A01 T03300180  RH  041%=      5-min Rain = 0
KCO1 142300Z 13014KT 33/18 A3002 RMK A01 T03310181  RH  041%=      5-min Rain = 0
KCO1 142301Z 13017G23KT 33/18 A3003 RMK A01 T03300181  RH  041%=      5-min Rain = 0
KCO1 142302Z 12017KT 33/18 A3003 RMK A01 T03290180  RH  041%=      5-min Rain = 0
KCO1 142303Z 12019G24KT 33/18 A3003 RMK A01 T03290180  RH  041%=      5-min Rain = 0
KCO1 142304Z 12019KT 33/18 A3003 RMK A01 T03280178  RH  041%=      5-min Rain = 0
KCO1 142305Z 12014KT 33/18 A3003 RMK A01 T03270180  RH  042%=      5-min Rain = 0
KCO1 142306Z 12018KT 33/18 A3003 RMK A01 T03260182  RH  042%=      5-min Rain = 0
KCO1 142307Z 12019G24KT 32/18 A3004 RMK A01 T03230181  RH  043%=      5-min Rain = 0
KCO1 142308Z 12018KT 32/18 A3003 RMK A01 T03210182  RH  044%=      5-min Rain = 0
KCO1 142309Z 13019KT 32/18 A3003 RMK A01 T03190182  RH  044%=      5-min Rain = 0
KCO1 142310Z 12017KT 32/18 A3004 RMK A01 T03180182  RH  044%=      5-min Rain = 0
KCO1 142311Z 12018KT 32/18 A3004 RMK A01 T03170183  RH  045%=      5-min Rain = 0
KCO1 142312Z 12017KT 32/19 A3004 RMK A01 T03160186  RH  046%=      5-min Rain = 0
KCO1 142313Z 12019KT 32/19 A3004 RMK A01 T03150186  RH  046%=      5-min Rain = 0
KCO1 142314Z 12019KT 31/19 A3004 RMK A01 T03140186  RH  046%=      5-min Rain = 0
KCO1 142315Z 12016G21KT 31/19 A3004 RMK A01 T03130186  RH  047%=      5-min Rain = 0
KCO1 142316Z 12016KT 31/19 A3004 RMK A01 T03130185  RH  047%=      5-min Rain = 0
KCO1 142317Z 12017KT 31/19 A3004 RMK A01 T03130185  RH  047%=      5-min Rain = 0
KCO1 142318Z 12015KT 31/19 A3004 RMK A01 T03130186  RH  047%=      5-min Rain = 0
KCO1 142319Z 13019KT 31/19 A3003 RMK A01 T03120187  RH  047%=      5-min Rain = 0
KCO1 142320Z 12015KT 31/19 A3003 RMK A01 T03120186  RH  047%=      5-min Rain = 0
KCO1 142321Z 13017KT 31/19 A3003 RMK A01 T03110186  RH  048%=      5-min Rain = 0
KCO1 142322Z 12017KT 31/19 A3003 RMK A01 T03100187  RH  048%=      5-min Rain = 0
KCO1 142323Z 13015KT 31/19 A3003 RMK A01 T03090187  RH  048%=      5-min Rain = 0
KCO1 142324Z 12017KT 31/19 A3003 RMK A01 T03090188  RH  048%=      5-min Rain = 0
KCO1 142325Z 13015G20KT 31/19 A3003 RMK A01 T03070188  RH  049%=      5-min Rain = 0
KCO1 142326Z 13015KT 31/19 A3003 RMK A01 T03070189  RH  049%=      5-min Rain = 0
KCO1 142327Z 13015KT 31/19 A3003 RMK A01 T03060190  RH  050%=      5-min Rain = 0
KCO1 142328Z 13014KT 31/19 A3003 RMK A01 T03050191  RH  050%=      5-min Rain = 0
KCO1 142329Z 13013G19KT 30/19 A3003 RMK A01 T03040191  RH  051%=      5-min Rain = 0
KCO1 142330Z 14015G20KT 30/19 A3003 RMK A01 T03040190  RH  051%=      5-min Rain = 0
KCO1 142331Z 14018KT 30/19 A3003 RMK A01 T03030189  RH  051%=      5-min Rain = 0
KCO1 142332Z 15015KT 30/19 A3004 RMK A01 T03030189  RH  051%=      5-min Rain = 0
KCO1 142333Z 15015KT 30/19 A3004 RMK A01 T03020189  RH  051%=      5-min Rain = 0
KCO1 142334Z 15015KT 30/19 A3004 RMK A01 T03020190  RH  051%=      5-min Rain = 0
KCO1 142335Z 15016KT 30/19 A3004 RMK A01 T03030190  RH  051%=      5-min Rain = 0
KCO1 142336Z 15012KT 30/19 A3004 RMK A01 T03030191  RH  051%=      5-min Rain = 0
KCO1 142337Z 15014KT 30/19 A3003 RMK A01 T03020190  RH  051%=      5-min Rain = 0
KCO1 142338Z 15014G19KT 30/19 A3003 RMK A01 T03030189  RH  051%=      5-min Rain = 0
KCO1 142339Z 15016KT 30/19 A3003 RMK A01 T03030188  RH  050%=      5-min Rain = 0
KCO1 142340Z 15014KT 30/19 A3003 RMK A01 T03040188  RH  050%=      5-min Rain = 0
KCO1 142341Z 14013G21KT 30/19 A3003 RMK A01 T03040189  RH  050%=      5-min Rain = 0
KCO1 142342Z 15015KT 30/19 A3003 RMK A01 T03040189  RH  050%=      5-min Rain = 0
KCO1 142343Z 15012KT 30/19 A3003 RMK A01 T03040188  RH  050%=      5-min Rain = 0
KCO1 142344Z 14012G17KT 30/19 A3003 RMK A01 T03040189  RH  050%=      5-min Rain = 0
KCO1 142345Z 14011KT 30/19 A3004 RMK A01 T03040189  RH  050%=      5-min Rain = 0
KCO1 142346Z 14013KT 30/19 A3004 RMK A01 T03040189  RH  050%=      5-min Rain = 0
KCO1 142347Z 14014KT 30/19 A3004 RMK A01 T03040189  RH  050%=      5-min Rain = 0
KCO1 142348Z 14012G17KT 30/19 A3004 RMK A01 T03040189  RH  050%=      5-min Rain = 0
KCO1 142349Z 14015KT 30/19 A3004 RMK A01 T03040188  RH  050%=      5-min Rain = 0
KCO1 142350Z 14013G18KT 30/19 A3004 RMK A01 T03040188  RH  050%=      5-min Rain = 0
KCO1 142351Z 14013KT 30/19 A3005 RMK A01 T03030188  RH  050%=      5-min Rain = 0
KCO1 142352Z 14011KT 30/19 A3005 RMK A01 T03020188  RH  050%=      5-min Rain = 0
KCO1 142353Z 14012G17KT 30/19 A3005 RMK A01 T03020190  RH  051%=      5-min Rain = 0
KCO1 142354Z 13015KT 30/19 A3005 RMK A01 T03020189  RH  051%=      5-min Rain = 0
KCO1 142355Z 14017KT 30/19 A3005 RMK A01 T03010187  RH  051%=      5-min Rain = 0
KCO1 142356Z 14015KT 30/19 A3005 RMK A01 T03000186  RH  051%=      5-min Rain = 0
KCO1 142357Z 15012KT 30/19 A3005 RMK A01 T02990187  RH  051%=      5-min Rain = 0
KCO1 142358Z 14014KT 30/19 A3005 RMK A01 T02990187  RH  051%=      5-min Rain = 0
KCO1 142359Z 15013KT 30/19 A3005 RMK A01 T02980185  RH  050%=      5-min Rain = 0
KCO1 150000Z 15014KT 30/18 A3005 RMK A01 T02980181  RH  049%=      5-min Rain = 0
KCO1 150001Z 14013KT 30/18 A3005 RMK A01 T02980178  RH  048%=      5-min Rain = 0
KCO1 150002Z 15014G19KT 30/18 A3004 RMK A01 T02980177  RH  048%=      5-min Rain = 0
KCO1 150003Z 14014KT 30/18 A3004 RMK A01 T02990176  RH  048%=      5-min Rain = 0
KCO1 150004Z 15013KT 30/18 A3004 RMK A01 T02990175  RH  047%=      5-min Rain = 0
KCO1 150005Z 15012KT 30/18 A3004 RMK A01 T02990176  RH  048%=      5-min Rain = 0
KCO1 150006Z 15011KT 30/18 A3004 RMK A01 T02990177  RH  048%=      5-min Rain = 0
KCO1 150007Z 15011KT 30/18 A3004 RMK A01 T02990177  RH  048%=      5-min Rain = 0
KCO1 150008Z 15012KT 30/18 A3004 RMK A01 T02990177  RH  048%=      5-min Rain = 0
KCO1 150009Z 15010KT 30/18 A3004 RMK A01 T02990177  RH  048%=      5-min Rain = 0
KCO1 150010Z 16010KT 30/18 A3004 RMK A01 T02990176  RH  048%=      5-min Rain = 0
KCO1 150011Z 15010KT 30/18 A3004 RMK A01 T02990175  RH  047%=      5-min Rain = 0
KCO1 150012Z 16008KT 30/18 A3004 RMK A01 T03000176  RH  048%=      5-min Rain = 0
KCO1 150013Z 16008KT 30/18 A3004 RMK A01 T03000177  RH  048%=      5-min Rain = 0
KCO1 150014Z 17009KT 30/18 A3005 RMK A01 T03000177  RH  048%=      5-min Rain = 0
KCO1 150015Z 17008KT 30/18 A3005 RMK A01 T03000179  RH  048%=      5-min Rain = 0
KCO1 150016Z 17009KT 30/18 A3005 RMK A01 T02990179  RH  049%=      5-min Rain = 0
KCO1 150017Z 17009KT 30/18 A3005 RMK A01 T02990179  RH  049%=      5-min Rain = 0
KCO1 150018Z 17008KT 30/18 A3005 RMK A01 T02990181  RH  049%=      5-min Rain = 0
KCO1 150019Z 18007KT 30/18 A3005 RMK A01 T02980181  RH  050%=      5-min Rain = 0
KCO1 150020Z 18007KT 30/18 A3005 RMK A01 T02980182  RH  050%=      5-min Rain = 0
KCO1 150021Z 19006KT 30/18 A3005 RMK A01 T02980182  RH  050%=      5-min Rain = 0
KCO1 150022Z 19007KT 30/18 A3005 RMK A01 T02980179  RH  049%=      5-min Rain = 0
KCO1 150023Z 19007KT 30/18 A3005 RMK A01 T02980178  RH  048%=      5-min Rain = 0
KCO1 150024Z 20007KT 30/18 A3005 RMK A01 T02990176  RH  048%=      5-min Rain = 0
KCO1 150025Z 21006KT 30/18 A3005 RMK A01 T02990177  RH  048%=      5-min Rain = 0
KCO1 150026Z 23007KT 30/18 A3005 RMK A01 T03000182  RH  049%=      5-min Rain = 0
KCO1 150027Z 25008KT 30/18 A3005 RMK A01 T02990182  RH  050%=      5-min Rain = 0
KCO1 150028Z 27010KT 30/19 A3005 RMK A01 T02970194  RH  054%=      5-min Rain = 0
KCO1 150029Z 26008KT 29/20 A3005 RMK A01 T02880202  RH  060%=      5-min Rain = 0
KCO1 150030Z 26008KT 28/20 A3005 RMK A01 T02810197  RH  060%=      5-min Rain = 0
KCO1 150031Z 26008KT 28/20 A3005 RMK A01 T02770197  RH  062%=      5-min Rain = 0
KCO1 150032Z 27009KT 28/20 A3005 RMK A01 T02760198  RH  063%=      5-min Rain = 0
KCO1 150033Z 26008KT 27/20 A3005 RMK A01 T02740198  RH  063%=      5-min Rain = 0
KCO1 150034Z 26010KT 27/20 A3005 RMK A01 T02740198  RH  063%=      5-min Rain = 0
KCO1 150035Z 26009KT 27/20 A3005 RMK A01 T02740197  RH  063%=      5-min Rain = 0
KCO1 150036Z 25007KT 27/20 A3005 RMK A01 T02740195  RH  062%=      5-min Rain = 0
KCO1 150037Z 24007KT 28/20 A3005 RMK A01 T02760196  RH  062%=      5-min Rain = 0
KCO1 150038Z 25009KT 28/20 A3005 RMK A01 T02760196  RH  062%=      5-min Rain = 0
KCO1 150039Z 24008KT 28/20 A3005 RMK A01 T02760195  RH  061%=      5-min Rain = 0
KCO1 150040Z 25008KT 27/19 A3005 RMK A01 T02740194  RH  061%=      5-min Rain = 0
KCO1 150041Z 25009KT 27/19 A3005 RMK A01 T02720191  RH  061%=      5-min Rain = 0
KCO1 150042Z 25010KT 27/19 A3005 RMK A01 T02700190  RH  062%=      5-min Rain = 0
KCO1 150043Z 24009KT 27/19 A3005 RMK A01 T02670190  RH  063%=      5-min Rain = 0
KCO1 150044Z 24008KT 27/19 A3005 RMK A01 T02650192  RH  064%=      5-min Rain = 0
KCO1 150045Z 24007KT 26/19 A3005 RMK A01 T02640192  RH  065%=      5-min Rain = 0
KCO1 150046Z 24009KT 26/19 A3005 RMK A01 T02630191  RH  065%=      5-min Rain = 0
KCO1 150047Z 23007KT 26/19 A3005 RMK A01 T02630191  RH  065%=      5-min Rain = 0
KCO1 150048Z 23006KT 26/19 A3005 RMK A01 T02630192  RH  065%=      5-min Rain = 0
KCO1 150049Z 23006KT 26/19 A3005 RMK A01 T02630193  RH  065%=      5-min Rain = 0
KCO1 150050Z 23005KT 26/19 A3005 RMK A01 T02630192  RH  065%=      5-min Rain = 0
KCO1 150051Z 22005KT 26/19 A3005 RMK A01 T02640193  RH  065%=      5-min Rain = 0
KCO1 150052Z 21005KT 26/19 A3005 RMK A01 T02640194  RH  065%=      5-min Rain = 0
KCO1 150053Z 21005KT 27/20 A3005 RMK A01 T02650195  RH  065%=      5-min Rain = 0
KCO1 150054Z 21007KT 27/19 A3005 RMK A01 T02660194  RH  065%=      5-min Rain = 0
KCO1 150055Z 21005KT 27/19 A3005 RMK A01 T02660193  RH  064%=      5-min Rain = 0
KCO1 150056Z 21006KT 27/19 A3005 RMK A01 T02660193  RH  064%=      5-min Rain = 0
KCO1 150057Z 22006KT 27/19 A3005 RMK A01 T02660194  RH  065%=      5-min Rain = 0
KCO1 150058Z 22005KT 27/19 A3005 RMK A01 T02660193  RH  064%=      5-min Rain = 0
KCO1 150059Z 22005KT 27/19 A3005 RMK A01 T02660193  RH  065%=      5-min Rain = 0
KCO1 150100Z 22006KT 27/19 A3005 RMK A01 T02660193  RH  064%=      5-min Rain = 0
KCO1 150101Z 23006KT 27/19 A3005 RMK A01 T02660191  RH  064%=      5-min Rain = 0
KCO1 150102Z 23006KT 27/19 A3005 RMK A01 T02660192  RH  064%=      5-min Rain = 0
KCO1 150103Z 23005KT 27/19 A3005 RMK A01 T02670192  RH  064%=      5-min Rain = 0
KCO1 150104Z 23005KT 27/19 A3005 RMK A01 T02670192  RH  063%=      5-min Rain = 0
KCO1 150105Z 22005KT 27/19 A3005 RMK A01 T02670192  RH  063%=      5-min Rain = 0
KCO1 150106Z 22006KT 27/19 A3005 RMK A01 T02680190  RH  062%=      5-min Rain = 0
KCO1 150107Z 22005KT 27/19 A3005 RMK A01 T02690191  RH  062%=      5-min Rain = 0
KCO1 150108Z 22006KT 27/19 A3005 RMK A01 T02690190  RH  062%=      5-min Rain = 0
KCO1 150109Z 21006KT 27/19 A3005 RMK A01 T02700190  RH  062%=      5-min Rain = 0
KCO1 150110Z 21006KT 27/19 A3005 RMK A01 T02700190  RH  062%=      5-min Rain = 0
KCO1 150111Z 21006KT 27/19 A3005 RMK A01 T02710190  RH  061%=      5-min Rain = 0
KCO1 150112Z 21006KT 27/19 A3005 RMK A01 T02710191  RH  061%=      5-min Rain = 0
KCO1 150113Z 21007KT 27/19 A3005 RMK A01 T02710190  RH  061%=      5-min Rain = 0
KCO1 150114Z 21006KT 27/19 A3005 RMK A01 T02710190  RH  061%=      5-min Rain = 0
KCO1 150115Z 21005KT 27/19 A3005 RMK A01 T02710190  RH  061%=      5-min Rain = 0
KCO1 150116Z 22005KT 27/19 A3005 RMK A01 T02710192  RH  062%=      5-min Rain = 0
KCO1 150117Z 21006KT 27/19 A3005 RMK A01 T02710191  RH  062%=      5-min Rain = 0
KCO1 150118Z 21006KT 27/19 A3005 RMK A01 T02710191  RH  061%=      5-min Rain = 0
KCO1 150119Z 21006KT 27/19 A3005 RMK A01 T02710191  RH  061%=      5-min Rain = 0
KCO1 150120Z 21006KT 27/19 A3005 RMK A01 T02710191  RH  062%=      5-min Rain = 0
KCO1 150121Z 21006KT 27/19 A3005 RMK A01 T02710192  RH  062%=      5-min Rain = 0
KCO1 150122Z 20007KT 27/19 A3005 RMK A01 T02710192  RH  062%=      5-min Rain = 0
KCO1 150123Z 19008KT 27/19 A3005 RMK A01 T02710193  RH  062%=      5-min Rain = 0
KCO1 150124Z 18009KT 27/19 A3004 RMK A01 T02700192  RH  062%=      5-min Rain = 0
KCO1 150125Z 18008KT 27/19 A3004 RMK A01 T02700192  RH  062%=      5-min Rain = 0
KCO1 150126Z 17007KT 27/19 A3004 RMK A01 T02690193  RH  063%=      5-min Rain = 0
KCO1 150127Z 17007KT 27/19 A3004 RMK A01 T02690194  RH  063%=      5-min Rain = 0
KCO1 150128Z 16008KT 27/19 A3004 RMK A01 T02690192  RH  063%=      5-min Rain = 0
KCO1 150129Z 16008KT 27/19 A3004 RMK A01 T02700192  RH  062%=      5-min Rain = 0
KCO1 150130Z 16009KT 27/19 A3004 RMK A01 T02700192  RH  062%=      5-min Rain = 0
KCO1 150131Z 16010KT 27/19 A3003 RMK A01 T02700191  RH  062%=      5-min Rain = 0
KCO1 150132Z 16010KT 27/19 A3003 RMK A01 T02700189  RH  061%=      5-min Rain = 0
KCO1 150133Z 16010KT 27/19 A3003 RMK A01 T02710188  RH  061%=      5-min Rain = 0
KCO1 150134Z 16011KT 27/19 A3003 RMK A01 T02720187  RH  060%=      5-min Rain = 0
KCO1 150135Z 16010KT 27/19 A3003 RMK A01 T02720185  RH  059%=      5-min Rain = 0
KCO1 150136Z 16010KT 27/19 A3003 RMK A01 T02730186  RH  059%=      5-min Rain = 0
KCO1 150137Z 15011KT 27/18 A3002 RMK A01 T02740184  RH  058%=      5-min Rain = 0
KCO1 150138Z 15010KT 28/18 A3002 RMK A01 T02760183  RH  057%=      5-min Rain = 0
KCO1 150139Z 15011KT 28/18 A3002 RMK A01 T02780182  RH  056%=      5-min Rain = 0
KCO1 150140Z 14013KT 28/18 A3002 RMK A01 T02800181  RH  055%=      5-min Rain = 0
KCO1 150141Z 15014KT 28/18 A3002 RMK A01 T02810179  RH  054%=      5-min Rain = 0
KCO1 150142Z 14013KT 28/18 A3002 RMK A01 T02820175  RH  052%=      5-min Rain = 0
KCO1 150143Z 15014KT 28/17 A3001 RMK A01 T02840173  RH  051%=      5-min Rain = 0
KCO1 150144Z 14013KT 29/17 A3001 RMK A01 T02850169  RH  049%=      5-min Rain = 0
KCO1 150145Z 15012KT 29/17 A3002 RMK A01 T02870167  RH  048%=      5-min Rain = 0
KCO1 150146Z 15012KT 29/17 A3002 RMK A01 T02880165  RH  047%=      5-min Rain = 0
KCO1 150147Z 15011KT 29/17 A3002 RMK A01 T02890165  RH  047%=      5-min Rain = 0
KCO1 150148Z 15008KT 29/16 A3002 RMK A01 T02900164  RH  047%=      5-min Rain = 0
KCO1 150149Z 15009KT 29/16 A3002 RMK A01 T02900163  RH  046%=      5-min Rain = 0
KCO1 150150Z 15008KT 29/16 A3003 RMK A01 T02910162  RH  046%=      5-min Rain = 0
KCO1 150151Z 15006KT 29/16 A3003 RMK A01 T02920162  RH  046%=      5-min Rain = 0
KCO1 150152Z 15005KT 29/16 A3003 RMK A01 T02920163  RH  046%=      5-min Rain = 0
KCO1 150153Z 15004KT 29/16 A3004 RMK A01 T02920162  RH  045%=      5-min Rain = 0
KCO1 150154Z 16002KT 29/16 A3004 RMK A01 T02920162  RH  045%=      5-min Rain = 0
KCO1 150155Z 26002KT 29/16 A3005 RMK A01 T02930163  RH  046%=      5-min Rain = 0
KCO1 150156Z 32004KT 29/16 A3005 RMK A01 T02930163  RH  046%=      5-min Rain = 0
KCO1 150157Z 34007KT 29/16 A3005 RMK A01 T02930163  RH  045%=      5-min Rain = 0
KCO1 150158Z 34008KT 29/16 A3006 RMK A01 T02940164  RH  046%=      5-min Rain = 0
KCO1 150159Z 34011KT 29/17 A3006 RMK A01 T02930174  RH  049%=      5-min Rain = 0
KCO1 150200Z 35009KT 29/18 A3006 RMK A01 T02880183  RH  053%=      5-min Rain = 0
KCO1 150201Z 34010KT 28/19 A3006 RMK A01 T02830186  RH  056%=      5-min Rain = 0
KCO1 150202Z 34013KT 28/19 A3006 RMK A01 T02800185  RH  056%=      5-min Rain = 0
KCO1 150203Z 33013KT 28/18 A3007 RMK A01 T02790177  RH  054%=      5-min Rain = 0
KCO1 150204Z 33015KT 28/17 A3007 RMK A01 T02820172  RH  051%=      5-min Rain = 0
KCO1 150205Z 32012KT 29/17 A3007 RMK A01 T02860171  RH  050%=      5-min Rain = 0
KCO1 150206Z 33006KT 29/17 A3007 RMK A01 T02870171  RH  049%=      5-min Rain = 0
KCO1 150207Z 32006KT 29/17 A3007 RMK A01 T02880171  RH  049%=      5-min Rain = 0
KCO1 150208Z 32002KT 29/17 A3007 RMK A01 T02890168  RH  048%=      5-min Rain = 0
KCO1 150209Z 20002KT 29/17 A3007 RMK A01 T02900168  RH  048%=      5-min Rain = 0
KCO1 150210Z 14003KT 29/17 A3007 RMK A01 T02910168  RH  047%=      5-min Rain = 0
KCO1 150211Z 14002KT 29/17 A3007 RMK A01 T02920167  RH  047%=      5-min Rain = 0
KCO1 150212Z 12003KT 29/17 A3007 RMK A01 T02930168  RH  047%=      5-min Rain = 0
KCO1 150213Z 12002KT 29/17 A3007 RMK A01 T02930167  RH  047%=      5-min Rain = 0
KCO1 150214Z 11002KT 29/17 A3007 RMK A01 T02930168  RH  047%=      5-min Rain = 0
KCO1 150215Z 14001KT 29/17 A3008 RMK A01 T02930169  RH  047%=      5-min Rain = 0
KCO1 150216Z 15000KT 29/17 A3008 RMK A01 T02930171  RH  048%=      5-min Rain = 0
KCO1 150217Z 00000KT 29/17 A3008 RMK A01 T02930170  RH  047%=      5-min Rain = 0
KCO1 150218Z 31001KT 29/17 A3008 RMK A01 T02930171  RH  048%=      5-min Rain = 0
KCO1 150219Z 31003KT 29/17 A3008 RMK A01 T02930172  RH  048%=      5-min Rain = 0
KCO1 150220Z 33004KT 29/18 A3008 RMK A01 T02930175  RH  049%=      5-min Rain = 0
KCO1 150221Z 33005KT 29/18 A3008 RMK A01 T02920176  RH  050%=      5-min Rain = 0
KCO1 150222Z 32005KT 29/18 A3008 RMK A01 T02900176  RH  050%=      5-min Rain = 0
KCO1 150223Z 31006KT 29/18 A3008 RMK A01 T02880177  RH  051%=      5-min Rain = 0
KCO1 150224Z 31004KT 29/18 A3008 RMK A01 T02860178  RH  052%=      5-min Rain = 0
KCO1 150225Z 32005KT 28/18 A3008 RMK A01 T02840178  RH  052%=      5-min Rain = 0
KCO1 150226Z 32004KT 28/18 A3008 RMK A01 T02840177  RH  052%=      5-min Rain = 0
KCO1 150227Z 32003KT 28/18 A3008 RMK A01 T02830177  RH  053%=      5-min Rain = 0
KCO1 150228Z 32003KT 28/18 A3008 RMK A01 T02830177  RH  053%=      5-min Rain = 0
KCO1 150229Z 34003KT 28/18 A3008 RMK A01 T02830177  RH  052%=      5-min Rain = 0
KCO1 150230Z 34003KT 28/18 A3008 RMK A01 T02830176  RH  052%=      5-min Rain = 0
KCO1 150231Z 32002KT 28/18 A3008 RMK A01 T02840176  RH  052%=      5-min Rain = 0
KCO1 150232Z 31002KT 28/18 A3008 RMK A01 T02840178  RH  052%=      5-min Rain = 0
KCO1 150233Z 31003KT 29/18 A3008 RMK A01 T02850177  RH  052%=      5-min Rain = 0
KCO1 150234Z 31002KT 28/18 A3008 RMK A01 T02840178  RH  052%=      5-min Rain = 0
KCO1 150235Z 31002KT 28/18 A3008 RMK A01 T02840179  RH  053%=      5-min Rain = 0
KCO1 150236Z 31002KT 28/18 A3008 RMK A01 T02830179  RH  053%=      5-min Rain = 0
KCO1 150237Z 32002KT 28/18 A3008 RMK A01 T02830181  RH  054%=      5-min Rain = 0
KCO1 150238Z 32000KT 28/18 A3008 RMK A01 T02820184  RH  055%=      5-min Rain = 0
KCO1 150239Z 00000KT 28/18 A3008 RMK A01 T02820181  RH  054%=      5-min Rain = 0
KCO1 150240Z 00000KT 28/18 A3008 RMK A01 T02810178  RH  054%=      5-min Rain = 0
KCO1 150241Z 25000KT 28/18 A3008 RMK A01 T02810178  RH  054%=      5-min Rain = 0
KCO1 150242Z 23001KT 28/18 A3008 RMK A01 T02810181  RH  055%=      5-min Rain = 0
KCO1 150243Z 23001KT 28/18 A3008 RMK A01 T02810183  RH  055%=      5-min Rain = 0
KCO1 150244Z 23002KT 28/19 A3009 RMK A01 T02800185  RH  056%=      5-min Rain = 0
KCO1 150245Z 24001KT 28/18 A3009 RMK A01 T02800183  RH  056%=      5-min Rain = 0
KCO1 150246Z 24002KT 28/18 A3009 RMK A01 T02800181  RH  055%=      5-min Rain = 0
KCO1 150247Z 24002KT 28/18 A3008 RMK A01 T02800180  RH  055%=      5-min Rain = 0
KCO1 150248Z 23002KT 28/18 A3008 RMK A01 T02810179  RH  054%=      5-min Rain = 0
KCO1 150249Z 21003KT 28/18 A3008 RMK A01 T02810179  RH  054%=      5-min Rain = 0
KCO1 150250Z 21002KT 28/18 A3008 RMK A01 T02820179  RH  054%=      5-min Rain = 0
KCO1 150251Z 21002KT 28/18 A3008 RMK A01 T02820180  RH  054%=      5-min Rain = 0
KCO1 150252Z 19002KT 28/18 A3008 RMK A01 T02830182  RH  054%=      5-min Rain = 0
KCO1 150253Z 19003KT 28/18 A3008 RMK A01 T02830180  RH  054%=      5-min Rain = 0
KCO1 150254Z 20003KT 28/18 A3008 RMK A01 T02830180  RH  054%=      5-min Rain = 0
KCO1 150255Z 21003KT 28/18 A3008 RMK A01 T02840182  RH  054%=      5-min Rain = 0
KCO1 150256Z 21003KT 28/18 A3008 RMK A01 T02830184  RH  055%=      5-min Rain = 0
KCO1 150257Z 21003KT 28/19 A3008 RMK A01 T02830185  RH  055%=      5-min Rain = 0
KCO1 150258Z 21002KT 28/18 A3008 RMK A01 T02830184  RH  055%=      5-min Rain = 0
KCO1 150259Z 21002KT 28/18 A3008 RMK A01 T02820184  RH  055%=      5-min Rain = 0
KCO1 150300Z 21002KT 28/18 A3008 RMK A01 T02820184  RH  055%=      5-min Rain = 0
KCO1 150301Z 22001KT 28/18 A3008 RMK A01 T02810184  RH  056%=      5-min Rain = 0
KCO1 150302Z 23001KT 28/18 A3008 RMK A01 T02810184  RH  056%=      5-min Rain = 0
KCO1 150303Z 23001KT 28/18 A3009 RMK A01 T02810184  RH  056%=      5-min Rain = 0
KCO1 150304Z 23001KT 28/18 A3009 RMK A01 T02800183  RH  056%=      5-min Rain = 0
KCO1 150305Z 23001KT 28/19 A3009 RMK A01 T02800185  RH  056%=      5-min Rain = 0
KCO1 150306Z 24001KT 28/19 A3009 RMK A01 T02800185  RH  056%=      5-min Rain = 0
KCO1 150307Z 26001KT 28/19 A3009 RMK A01 T02800186  RH  057%=      5-min Rain = 0
KCO1 150308Z 28001KT 28/19 A3009 RMK A01 T02800186  RH  057%=      5-min Rain = 0
KCO1 150309Z 31001KT 28/19 A3009 RMK A01 T02800185  RH  056%=      5-min Rain = 0
KCO1 150310Z 33002KT 28/19 A3009 RMK A01 T02800185  RH  056%=      5-min Rain = 0
KCO1 150311Z 34003KT 28/19 A3009 RMK A01 T02800189  RH  058%=      5-min Rain = 0
KCO1 150312Z 34003KT 28/19 A3009 RMK A01 T02810189  RH  057%=      5-min Rain = 0
KCO1 150313Z 34003KT 28/19 A3009 RMK A01 T02800189  RH  057%=      5-min Rain = 0
KCO1 150314Z 34004KT 28/19 A3009 RMK A01 T02800189  RH  058%=      5-min Rain = 0
KCO1 150315Z 34005KT 28/19 A3009 RMK A01 T02790189  RH  058%=      5-min Rain = 0
KCO1 150316Z 35005KT 28/19 A3009 RMK A01 T02770188  RH  058%=      5-min Rain = 0
KCO1 150317Z 35005KT 28/19 A3009 RMK A01 T02760187  RH  058%=      5-min Rain = 0
KCO1 150318Z 35005KT 28/19 A3009 RMK A01 T02760186  RH  058%=      5-min Rain = 0
KCO1 150319Z 36005KT 28/19 A3009 RMK A01 T02750186  RH  058%=      5-min Rain = 0
KCO1 150320Z 00004KT 28/19 A3009 RMK A01 T02750189  RH  059%=      5-min Rain = 0
KCO1 150321Z 01004KT 28/19 A3009 RMK A01 T02750190  RH  060%=      5-min Rain = 0
KCO1 150322Z 01003KT 28/19 A3009 RMK A01 T02750190  RH  060%=      5-min Rain = 0
KCO1 150323Z 00003KT 28/19 A3009 RMK A01 T02750189  RH  060%=      5-min Rain = 0
KCO1 150324Z 01003KT 27/19 A3009 RMK A01 T02740189  RH  060%=      5-min Rain = 0
KCO1 150325Z 01002KT 27/19 A3009 RMK A01 T02740189  RH  060%=      5-min Rain = 0
KCO1 150326Z 01002KT 27/19 A3009 RMK A01 T02740191  RH  060%=      5-min Rain = 0
KCO1 150327Z 01002KT 27/19 A3009 RMK A01 T02740191  RH  061%=      5-min Rain = 0
KCO1 150328Z 01002KT 27/19 A3009 RMK A01 T02740189  RH  060%=      5-min Rain = 0
KCO1 150329Z 01001KT 27/19 A3009 RMK A01 T02730189  RH  060%=      5-min Rain = 0
KCO1 150330Z 01001KT 27/19 A3009 RMK A01 T02730188  RH  059%=      5-min Rain = 0
KCO1 150331Z 00001KT 27/19 A3009 RMK A01 T02730186  RH  059%=      5-min Rain = 0
KCO1 150332Z 35001KT 27/19 A3009 RMK A01 T02730188  RH  059%=      5-min Rain = 0
KCO1 150333Z 35001KT 27/19 A3009 RMK A01 T02740190  RH  060%=      5-min Rain = 0
KCO1 150334Z 34000KT 27/20 A3009 RMK A01 T02740196  RH  062%=      5-min Rain = 0
KCO1 150335Z 00000KT 27/20 A3009 RMK A01 T02740195  RH  062%=      5-min Rain = 0
KCO1 150336Z 00000KT 27/19 A3009 RMK A01 T02730193  RH  062%=      5-min Rain = 0
KCO1 150337Z 00000KT 27/19 A3009 RMK A01 T02730191  RH  061%=      5-min Rain = 0
KCO1 150338Z 00000KT 27/19 A3009 RMK A01 T02730193  RH  062%=      5-min Rain = 0
KCO1 150339Z 34000KT 27/19 A3009 RMK A01 T02720191  RH  061%=      5-min Rain = 0
KCO1 150340Z 35001KT 27/19 A3009 RMK A01 T02720188  RH  060%=      5-min Rain = 0
KCO1 150341Z 02001KT 27/19 A3009 RMK A01 T02720187  RH  060%=      5-min Rain = 0
KCO1 150342Z 03002KT 27/19 A3009 RMK A01 T02720190  RH  061%=      5-min Rain = 0
KCO1 150343Z 03002KT 27/20 A3009 RMK A01 T02730195  RH  063%=      5-min Rain = 0
KCO1 150344Z 04002KT 27/20 A3009 RMK A01 T02730195  RH  062%=      5-min Rain = 0
KCO1 150345Z 04002KT 27/19 A3009 RMK A01 T02730194  RH  062%=      5-min Rain = 0
KCO1 150346Z 05002KT 27/19 A3009 RMK A01 T02730194  RH  062%=      5-min Rain = 0
KCO1 150347Z 06002KT 27/20 A3009 RMK A01 T02730196  RH  063%=      5-min Rain = 0
KCO1 150348Z 07002KT 27/20 A3009 RMK A01 T02730199  RH  064%=      5-min Rain = 0
KCO1 150349Z 08002KT 27/20 A3009 RMK A01 T02730199  RH  064%=      5-min Rain = 0
KCO1 150350Z 08002KT 27/20 A3009 RMK A01 T02720199  RH  064%=      5-min Rain = 0
KCO1 150351Z 09002KT 27/20 A3009 RMK A01 T02720199  RH  064%=      5-min Rain = 0
KCO1 150352Z 09003KT 27/20 A3009 RMK A01 T02710200  RH  065%=      5-min Rain = 0
KCO1 150353Z 08003KT 27/20 A3009 RMK A01 T02710200  RH  065%=      5-min Rain = 0
KCO1 150354Z 07003KT 27/20 A3009 RMK A01 T02700200  RH  065%=      5-min Rain = 0
KCO1 150355Z 07003KT 27/20 A3009 RMK A01 T02700201  RH  066%=      5-min Rain = 0
KCO1 150356Z 07004KT 27/20 A3009 RMK A01 T02690201  RH  066%=      5-min Rain = 0
KCO1 150357Z 07004KT 27/20 A3009 RMK A01 T02690199  RH  066%=      5-min Rain = 0
KCO1 150358Z 08004KT 27/20 A3009 RMK A01 T02690199  RH  066%=      5-min Rain = 0
KCO1 150359Z 08004KT 27/20 A3009 RMK A01 T02690199  RH  066%=      5-min Rain = 0
KCO1 150400Z 07004KT 27/20 A3009 RMK A01 T02690199  RH  066%=      5-min Rain = 0
KCO1 150401Z 07004KT 27/20 A3009 RMK A01 T02690199  RH  065%=      5-min Rain = 0
KCO1 150402Z 07004KT 27/20 A3009 RMK A01 T02690198  RH  065%=      5-min Rain = 0
KCO1 150403Z 08004KT 27/20 A3009 RMK A01 T02690197  RH  065%=      5-min Rain = 0
KCO1 150404Z 08004KT 27/20 A3009 RMK A01 T02690197  RH  065%=      5-min Rain = 0
KCO1 150405Z 07004KT 27/20 A3009 RMK A01 T02690196  RH  064%=      5-min Rain = 0
KCO1 150406Z 08003KT 27/20 A301 RMK A01 T02690195  RH  064%=      5-min Rain = 0
KCO1 150407Z 08003KT 27/20 A3009 RMK A01 T02690195  RH  064%=      5-min Rain = 0
KCO1 150408Z 08003KT 27/19 A3009 RMK A01 T02690194  RH  064%=      5-min Rain = 0
KCO1 150409Z 08003KT 27/19 A301 RMK A01 T02690194  RH  063%=      5-min Rain = 0
KCO1 150410Z 08003KT 27/19 A301 RMK A01 T02690192  RH  063%=      5-min Rain = 0
KCO1 150411Z 07002KT 27/19 A301 RMK A01 T02690192  RH  063%=      5-min Rain = 0
KCO1 150412Z 08002KT 27/19 A301 RMK A01 T02690193  RH  063%=      5-min Rain = 0
KCO1 150413Z 07002KT 27/19 A301 RMK A01 T02690193  RH  063%=      5-min Rain = 0
KCO1 150414Z 07002KT 27/19 A301 RMK A01 T02690193  RH  063%=      5-min Rain = 0
KCO1 150415Z 06002KT 27/19 A3009 RMK A01 T02690193  RH  063%=      5-min Rain = 0
KCO1 150416Z 07002KT 27/19 A3009 RMK A01 T02690193  RH  063%=      5-min Rain = 0
KCO1 150417Z 07002KT 27/19 A3009 RMK A01 T02690194  RH  064%=      5-min Rain = 0
KCO1 150418Z 07002KT 27/19 A3009 RMK A01 T02680194  RH  064%=      5-min Rain = 0
KCO1 150419Z 06002KT 27/20 A3009 RMK A01 T02680195  RH  064%=      5-min Rain = 0
KCO1 150420Z 06002KT 27/19 A3009 RMK A01 T02680194  RH  064%=      5-min Rain = 0
KCO1 150421Z 06002KT 27/19 A3009 RMK A01 T02680194  RH  064%=      5-min Rain = 0
KCO1 150422Z 06002KT 27/20 A3009 RMK A01 T02670195  RH  065%=      5-min Rain = 0
KCO1 150423Z 06003KT 27/20 A3009 RMK A01 T02670196  RH  065%=      5-min Rain = 0
KCO1 150424Z 06003KT 27/19 A3009 RMK A01 T02680194  RH  064%=      5-min Rain = 0
KCO1 150425Z 06003KT 27/19 A3009 RMK A01 T02670194  RH  064%=      5-min Rain = 0
KCO1 150426Z 06003KT 27/19 A3009 RMK A01 T02670194  RH  064%=      5-min Rain = 0
KCO1 150427Z 06003KT 27/20 A3009 RMK A01 T02680195  RH  064%=      5-min Rain = 0
KCO1 150428Z 07003KT 27/20 A3009 RMK A01 T02670195  RH  065%=      5-min Rain = 0
KCO1 150429Z 07003KT 27/20 A3009 RMK A01 T02670196  RH  065%=      5-min Rain = 0
KCO1 150430Z 07003KT 27/20 A3009 RMK A01 T02660196  RH  065%=      5-min Rain = 0
KCO1 150431Z 07004KT 27/20 A3009 RMK A01 T02660197  RH  066%=      5-min Rain = 0
KCO1 150432Z 08003KT 27/20 A3009 RMK A01 T02660197  RH  066%=      5-min Rain = 0
KCO1 150433Z 08003KT 27/20 A3009 RMK A01 T02650197  RH  066%=      5-min Rain = 0
KCO1 150434Z 08003KT 27/20 A3009 RMK A01 T02650197  RH  066%=      5-min Rain = 0
KCO1 150435Z 08003KT 27/20 A3009 RMK A01 T02650197  RH  066%=      5-min Rain = 0
KCO1 150436Z 07003KT 27/20 A3009 RMK A01 T02650198  RH  066%=      5-min Rain = 0
KCO1 150437Z 07003KT 27/20 A3009 RMK A01 T02650198  RH  066%=      5-min Rain = 0
KCO1 150438Z 07003KT 27/20 A3009 RMK A01 T02650198  RH  066%=      5-min Rain = 0
KCO1 150439Z 07003KT 27/20 A3009 RMK A01 T02650198  RH  067%=      5-min Rain = 0
KCO1 150440Z 07003KT 27/20 A3009 RMK A01 T02650198  RH  067%=      5-min Rain = 0
KCO1 150441Z 07003KT 27/20 A3009 RMK A01 T02650199  RH  067%=      5-min Rain = 0
KCO1 150442Z 07002KT 27/20 A3009 RMK A01 T02650200  RH  067%=      5-min Rain = 0
KCO1 150443Z 07003KT 27/20 A3009 RMK A01 T02650200  RH  067%=      5-min Rain = 0
KCO1 150444Z 06002KT 27/20 A3009 RMK A01 T02650200  RH  068%=      5-min Rain = 0
KCO1 150445Z 06003KT 27/20 A3009 RMK A01 T02650200  RH  067%=      5-min Rain = 0
KCO1 150446Z 06003KT 27/20 A3009 RMK A01 T02650200  RH  067%=      5-min Rain = 0
KCO1 150447Z 06002KT 27/20 A3009 RMK A01 T02660201  RH  068%=      5-min Rain = 0
KCO1 150448Z 06003KT 27/20 A3009 RMK A01 T02650199  RH  067%=      5-min Rain = 0
KCO1 150449Z 06003KT 27/20 A3009 RMK A01 T02660198  RH  066%=      5-min Rain = 0
KCO1 150450Z 06003KT 27/20 A3009 RMK A01 T02650196  RH  066%=      5-min Rain = 0
KCO1 150451Z 05003KT 27/20 A3009 RMK A01 T02660197  RH  066%=      5-min Rain = 0
KCO1 150452Z 05003KT 27/20 A3009 RMK A01 T02660198  RH  066%=      5-min Rain = 0
KCO1 150453Z 05004KT 27/20 A3009 RMK A01 T02660199  RH  067%=      5-min Rain = 0
KCO1 150454Z 05004KT 27/20 A3009 RMK A01 T02660200  RH  067%=      5-min Rain = 0
KCO1 150455Z 06003KT 27/20 A3009 RMK A01 T02660200  RH  067%=      5-min Rain = 0
KCO1 150456Z 07003KT 27/20 A3009 RMK A01 T02660200  RH  067%=      5-min Rain = 0
KCO1 150457Z 07003KT 27/20 A3009 RMK A01 T02650198  RH  067%=      5-min Rain = 0
KCO1 150458Z 08004KT 27/20 A3009 RMK A01 T02650197  RH  066%=      5-min Rain = 0
KCO1 150459Z 08004KT 27/20 A3009 RMK A01 T02650197  RH  066%=      5-min Rain = 0

Page generated in 0.1459 seconds.